<?xml version='1.0' encoding='UTF-8'?><gpx version="1.1" creator="JPX - https://github.com/jenetics/jpx" xmlns="http://www.topografix.com/GPX/1/1"><trk><trkseg><trkpt lat="44.31035397465922" lon="11.458008500776819"><ele>192.0</ele><time>2026-03-22T15:31:01.998Z</time></trkpt><trkpt lat="44.31029594651425" lon="11.457963866988306"><ele>192.0</ele><time>2026-03-22T15:31:27.999Z</time></trkpt><trkpt lat="44.310312766454246" lon="11.458078688097215"><ele>192.0</ele><time>2026-03-22T15:32:38.999Z</time></trkpt><trkpt lat="44.310238616713335" lon="11.45816976717262"><ele>192.0</ele><time>2026-03-22T15:32:41.999Z</time></trkpt><trkpt lat="44.3101194405835" lon="11.45819703682835"><ele>192.0</ele><time>2026-03-22T15:32:43.999Z</time></trkpt><trkpt lat="44.31005270973271" lon="11.458226340665165"><ele>192.0</ele><time>2026-03-22T15:32:45.999Z</time></trkpt><trkpt lat="44.3100088352959" lon="11.45829708318153"><ele>192.0</ele><time>2026-03-22T15:32:47.999Z</time></trkpt><trkpt lat="44.30997702386832" lon="11.458388462094486"><ele>192.0</ele><time>2026-03-22T15:32:57.999Z</time></trkpt><trkpt lat="44.31003500247757" lon="11.4585140420728"><ele>192.0</ele><time>2026-03-22T15:32:59.999Z</time></trkpt><trkpt lat="44.31013451317585" lon="11.45864523852093"><ele>192.0</ele><time>2026-03-22T15:33:01.999Z</time></trkpt><trkpt lat="44.31019896501197" lon="11.458744789506374"><ele>192.0</ele><time>2026-03-22T15:33:03Z</time></trkpt><trkpt lat="44.310262234987" lon="11.458843508497853"><ele>191.75</ele><time>2026-03-22T15:33:04Z</time></trkpt><trkpt lat="44.31032735956175" lon="11.458951828718051"><ele>191.5</ele><time>2026-03-22T15:33:05Z</time></trkpt><trkpt lat="44.310403667532555" lon="11.459082161471134"><ele>191.25</ele><time>2026-03-22T15:33:06Z</time></trkpt><trkpt lat="44.31047101923466" lon="11.459215956730011"><ele>191.0</ele><time>2026-03-22T15:33:07Z</time></trkpt><trkpt lat="44.31053772804618" lon="11.459348512398229"><ele>191.4</ele><time>2026-03-22T15:33:08Z</time></trkpt><trkpt lat="44.31059787940543" lon="11.459472068554657"><ele>191.8</ele><time>2026-03-22T15:33:09Z</time></trkpt><trkpt lat="44.310646715431794" lon="11.459583628007593"><ele>192.20000000000002</ele><time>2026-03-22T15:33:10Z</time></trkpt><trkpt lat="44.31069499972637" lon="11.459705953442686"><ele>192.60000000000002</ele><time>2026-03-22T15:33:11Z</time></trkpt><trkpt lat="44.31073456548294" lon="11.459856008679724"><ele>193.0</ele><time>2026-03-22T15:33:12Z</time></trkpt><trkpt lat="44.3107586543988" lon="11.460032172724432"><ele>193.0</ele><time>2026-03-22T15:33:13Z</time></trkpt><trkpt lat="44.310765398685774" lon="11.460203854448546"><ele>193.0</ele><time>2026-03-22T15:33:14Z</time></trkpt><trkpt lat="44.31076341281819" lon="11.460351739872559"><ele>193.0</ele><time>2026-03-22T15:33:15Z</time></trkpt><trkpt lat="44.31076434476197" lon="11.46048175200495"><ele>193.0</ele><time>2026-03-22T15:33:16Z</time></trkpt><trkpt lat="44.31076876302858" lon="11.460605019912604"><ele>193.0</ele><time>2026-03-22T15:33:17Z</time></trkpt><trkpt lat="44.31077930890754" lon="11.460731342553721"><ele>192.2</ele><time>2026-03-22T15:33:18Z</time></trkpt><trkpt lat="44.3107874160125" lon="11.460877007066602"><ele>191.4</ele><time>2026-03-22T15:33:19Z</time></trkpt><trkpt lat="44.310788504577516" lon="11.461042435790558"><ele>190.6</ele><time>2026-03-22T15:33:20Z</time></trkpt><trkpt lat="44.31079147153282" lon="11.461208968413267"><ele>189.79999999999998</ele><time>2026-03-22T15:33:21Z</time></trkpt><trkpt lat="44.31080124842404" lon="11.461352564416424"><ele>189.0</ele><time>2026-03-22T15:33:22Z</time></trkpt><trkpt lat="44.310818024392596" lon="11.461494379631457"><ele>188.0</ele><time>2026-03-22T15:33:23Z</time></trkpt><trkpt lat="44.31085772990684" lon="11.46164311056727"><ele>187.0</ele><time>2026-03-22T15:33:24Z</time></trkpt><trkpt lat="44.31092753874113" lon="11.461780244106292"><ele>186.0</ele><time>2026-03-22T15:33:25Z</time></trkpt><trkpt lat="44.311030274397524" lon="11.461909966227445"><ele>185.0</ele><time>2026-03-22T15:33:26Z</time></trkpt><trkpt lat="44.31114231758004" lon="11.462024426141937"><ele>185.0</ele><time>2026-03-22T15:33:27Z</time></trkpt><trkpt lat="44.31125292068586" lon="11.462147674506584"><ele>185.0</ele><time>2026-03-22T15:33:28Z</time></trkpt><trkpt lat="44.31137286567628" lon="11.462277460616873"><ele>185.0</ele><time>2026-03-22T15:33:29Z</time></trkpt><trkpt lat="44.311497447698365" lon="11.462404661099919"><ele>185.0</ele><time>2026-03-22T15:33:30Z</time></trkpt><trkpt lat="44.311623919030104" lon="11.462530712168086"><ele>185.0</ele><time>2026-03-22T15:33:31Z</time></trkpt><trkpt lat="44.31175676142089" lon="11.462659576824908"><ele>185.0</ele><time>2026-03-22T15:33:32Z</time></trkpt><trkpt lat="44.311893535730505" lon="11.462791561042538"><ele>185.0</ele><time>2026-03-22T15:33:33Z</time></trkpt><trkpt lat="44.31204015221783" lon="11.462922170895892"><ele>185.33333333333331</ele><time>2026-03-22T15:33:34Z</time></trkpt><trkpt lat="44.312187107070216" lon="11.463059368835042"><ele>185.66666666666666</ele><time>2026-03-22T15:33:35Z</time></trkpt><trkpt lat="44.312336781253684" lon="11.463191614513347"><ele>186.0</ele><time>2026-03-22T15:33:36Z</time></trkpt><trkpt lat="44.31249517464872" lon="11.463309115729077"><ele>186.0</ele><time>2026-03-22T15:33:37Z</time></trkpt><trkpt lat="44.31264337968437" lon="11.463421853996168"><ele>186.0</ele><time>2026-03-22T15:33:38Z</time></trkpt><trkpt lat="44.31279399876829" lon="11.46353184020043"><ele>186.0</ele><time>2026-03-22T15:33:39Z</time></trkpt><trkpt lat="44.31293791008378" lon="11.463635603747557"><ele>187.0</ele><time>2026-03-22T15:33:40Z</time></trkpt><trkpt lat="44.31307739150777" lon="11.463735087648143"><ele>188.0</ele><time>2026-03-22T15:33:41Z</time></trkpt><trkpt lat="44.3132168273215" lon="11.463835533069695"><ele>189.0</ele><time>2026-03-22T15:33:42Z</time></trkpt><trkpt lat="44.313354879476066" lon="11.46393585952809"><ele>189.0</ele><time>2026-03-22T15:33:43Z</time></trkpt><trkpt lat="44.31349325677616" lon="11.464036480157578"><ele>189.0</ele><time>2026-03-22T15:33:44Z</time></trkpt><trkpt lat="44.31363400162623" lon="11.464146179470681"><ele>189.0</ele><time>2026-03-22T15:33:45Z</time></trkpt><trkpt lat="44.313773067949924" lon="11.464257219121677"><ele>189.66666666666666</ele><time>2026-03-22T15:33:46Z</time></trkpt><trkpt lat="44.31391725566559" lon="11.464374386637102"><ele>190.33333333333331</ele><time>2026-03-22T15:33:47Z</time></trkpt><trkpt lat="44.314059207125645" lon="11.464486732529737"><ele>191.0</ele><time>2026-03-22T15:33:48Z</time></trkpt><trkpt lat="44.31418798985403" lon="11.464590697113529"><ele>189.5</ele><time>2026-03-22T15:33:49Z</time></trkpt><trkpt lat="44.31430881112901" lon="11.464685060267964"><ele>188.0</ele><time>2026-03-22T15:33:50Z</time></trkpt><trkpt lat="44.31442366903919" lon="11.464772969658407"><ele>186.5</ele><time>2026-03-22T15:33:51Z</time></trkpt><trkpt lat="44.314543640105235" lon="11.464866830436149"><ele>185.0</ele><time>2026-03-22T15:33:52Z</time></trkpt><trkpt lat="44.31466838896536" lon="11.464968103607475"><ele>185.0</ele><time>2026-03-22T15:33:53Z</time></trkpt><trkpt lat="44.31479111170557" lon="11.465077875934684"><ele>185.0</ele><time>2026-03-22T15:33:54Z</time></trkpt><trkpt lat="44.31491272080887" lon="11.465206770326072"><ele>185.0</ele><time>2026-03-22T15:33:55Z</time></trkpt><trkpt lat="44.31502386043243" lon="11.46534435618649"><ele>185.0</ele><time>2026-03-22T15:33:56Z</time></trkpt><trkpt lat="44.315125712203276" lon="11.465483106627703"><ele>185.0</ele><time>2026-03-22T15:33:57Z</time></trkpt><trkpt lat="44.31521598314002" lon="11.465612614626057"><ele>185.0</ele><time>2026-03-22T15:33:58Z</time></trkpt><trkpt lat="44.31529832992799" lon="11.465738003898176"><ele>185.0</ele><time>2026-03-22T15:33:59Z</time></trkpt><trkpt lat="44.315377506082676" lon="11.465880754927209"><ele>185.0</ele><time>2026-03-22T15:34:00Z</time></trkpt><trkpt lat="44.31544289337812" lon="11.466049295003323"><ele>185.0</ele><time>2026-03-22T15:34:01Z</time></trkpt><trkpt lat="44.31547997937469" lon="11.466233850689528"><ele>185.0</ele><time>2026-03-22T15:34:02Z</time></trkpt><trkpt lat="44.315485808037906" lon="11.466432890450708"><ele>185.0</ele><time>2026-03-22T15:34:03Z</time></trkpt><trkpt lat="44.31547439885242" lon="11.466609617265359"><ele>185.0</ele><time>2026-03-22T15:34:04Z</time></trkpt><trkpt lat="44.315462167098204" lon="11.466779693684975"><ele>184.5</ele><time>2026-03-22T15:34:05Z</time></trkpt><trkpt lat="44.31544813405366" lon="11.46694761420792"><ele>184.0</ele><time>2026-03-22T15:34:06Z</time></trkpt><trkpt lat="44.31543798148673" lon="11.467101088538355"><ele>183.5</ele><time>2026-03-22T15:34:07Z</time></trkpt><trkpt lat="44.31545913085477" lon="11.467262560946882"><ele>183.0</ele><time>2026-03-22T15:34:08Z</time></trkpt><trkpt lat="44.31551261344937" lon="11.467421394528916"><ele>183.75</ele><time>2026-03-22T15:34:09Z</time></trkpt><trkpt lat="44.315581913036034" lon="11.467574437788263"><ele>184.5</ele><time>2026-03-22T15:34:10Z</time></trkpt><trkpt lat="44.31563878564834" lon="11.467730380010872"><ele>185.25</ele><time>2026-03-22T15:34:11Z</time></trkpt><trkpt lat="44.31565414182546" lon="11.467912471337007"><ele>186.0</ele><time>2026-03-22T15:34:12Z</time></trkpt><trkpt lat="44.3156443005695" lon="11.468084063416546"><ele>185.25</ele><time>2026-03-22T15:34:13Z</time></trkpt><trkpt lat="44.315600668158645" lon="11.468250710437491"><ele>184.5</ele><time>2026-03-22T15:34:14Z</time></trkpt><trkpt lat="44.3155480035676" lon="11.46842033320237"><ele>183.75</ele><time>2026-03-22T15:34:15Z</time></trkpt><trkpt lat="44.31550247395503" lon="11.468613788716047"><ele>183.0</ele><time>2026-03-22T15:34:16Z</time></trkpt><trkpt lat="44.31543803646968" lon="11.468802892112887"><ele>183.0</ele><time>2026-03-22T15:34:17Z</time></trkpt><trkpt lat="44.31538165292685" lon="11.468984683814346"><ele>183.0</ele><time>2026-03-22T15:34:18Z</time></trkpt><trkpt lat="44.31531818791083" lon="11.469178271063656"><ele>183.0</ele><time>2026-03-22T15:34:19Z</time></trkpt><trkpt lat="44.31524860996676" lon="11.46937854298137"><ele>183.0</ele><time>2026-03-22T15:34:20Z</time></trkpt><trkpt lat="44.31519921313008" lon="11.469594126843182"><ele>183.0</ele><time>2026-03-22T15:34:21Z</time></trkpt><trkpt lat="44.3151474600415" lon="11.469813941253589"><ele>183.0</ele><time>2026-03-22T15:34:22Z</time></trkpt><trkpt lat="44.315096348902514" lon="11.47002669612392"><ele>184.0</ele><time>2026-03-22T15:34:23Z</time></trkpt><trkpt lat="44.31504404059133" lon="11.470246492325872"><ele>185.0</ele><time>2026-03-22T15:34:24Z</time></trkpt><trkpt lat="44.3149896383989" lon="11.470465722325303"><ele>186.0</ele><time>2026-03-22T15:34:25Z</time></trkpt><trkpt lat="44.314938193952656" lon="11.470668008131614"><ele>186.75</ele><time>2026-03-22T15:34:26Z</time></trkpt><trkpt lat="44.3148883443227" lon="11.470869554915794"><ele>187.5</ele><time>2026-03-22T15:34:27Z</time></trkpt><trkpt lat="44.314842324296606" lon="11.471068457681715"><ele>188.25</ele><time>2026-03-22T15:34:28Z</time></trkpt><trkpt lat="44.314796571268396" lon="11.471260075801155"><ele>189.0</ele><time>2026-03-22T15:34:29Z</time></trkpt><trkpt lat="44.31475373884767" lon="11.471434314186123"><ele>185.75</ele><time>2026-03-22T15:34:30Z</time></trkpt><trkpt lat="44.314720487989725" lon="11.4716017493292"><ele>182.5</ele><time>2026-03-22T15:34:31Z</time></trkpt><trkpt lat="44.314684557200586" lon="11.471760551578967"><ele>179.25</ele><time>2026-03-22T15:34:32Z</time></trkpt><trkpt lat="44.31465418191304" lon="11.471922212631089"><ele>176.0</ele><time>2026-03-22T15:34:33Z</time></trkpt><trkpt lat="44.31463816399048" lon="11.472074433859753"><ele>176.0</ele><time>2026-03-22T15:34:34Z</time></trkpt><trkpt lat="44.31465065183041" lon="11.472249707710183"><ele>176.0</ele><time>2026-03-22T15:34:35Z</time></trkpt><trkpt lat="44.314696991607555" lon="11.472424110987493"><ele>176.0</ele><time>2026-03-22T15:34:36Z</time></trkpt><trkpt lat="44.31476626340787" lon="11.472586991013227"><ele>176.0</ele><time>2026-03-22T15:34:37Z</time></trkpt><trkpt lat="44.31484510659248" lon="11.472744774315139"><ele>178.75</ele><time>2026-03-22T15:34:38Z</time></trkpt><trkpt lat="44.3148895699846" lon="11.472935305478508"><ele>181.5</ele><time>2026-03-22T15:34:39Z</time></trkpt><trkpt lat="44.31492300259429" lon="11.47313212970093"><ele>184.25</ele><time>2026-03-22T15:34:40Z</time></trkpt><trkpt lat="44.31494410146003" lon="11.47333380587996"><ele>187.0</ele><time>2026-03-22T15:34:41Z</time></trkpt><trkpt lat="44.31497389541346" lon="11.47352180203053"><ele>187.0</ele><time>2026-03-22T15:34:42Z</time></trkpt><trkpt lat="44.31498716386922" lon="11.47369550379211"><ele>187.0</ele><time>2026-03-22T15:34:43Z</time></trkpt><trkpt lat="44.315010522755756" lon="11.473885377566141"><ele>187.0</ele><time>2026-03-22T15:34:44Z</time></trkpt><trkpt lat="44.315040247063585" lon="11.474079862340405"><ele>187.0</ele><time>2026-03-22T15:34:45Z</time></trkpt><trkpt lat="44.31507742971266" lon="11.47428601609378"><ele>185.66666666666669</ele><time>2026-03-22T15:34:46Z</time></trkpt><trkpt lat="44.31512204150465" lon="11.474492203674144"><ele>184.33333333333334</ele><time>2026-03-22T15:34:47Z</time></trkpt><trkpt lat="44.315176678605035" lon="11.474701652222858"><ele>183.0</ele><time>2026-03-22T15:34:48Z</time></trkpt><trkpt lat="44.31521427158143" lon="11.474922246649465"><ele>181.0</ele><time>2026-03-22T15:34:49Z</time></trkpt><trkpt lat="44.3152869555143" lon="11.475134133481069"><ele>179.0</ele><time>2026-03-22T15:34:50Z</time></trkpt><trkpt lat="44.31534143323286" lon="11.475345063792943"><ele>177.0</ele><time>2026-03-22T15:34:51Z</time></trkpt><trkpt lat="44.31541058814751" lon="11.475545230077913"><ele>175.66666666666666</ele><time>2026-03-22T15:34:52Z</time></trkpt><trkpt lat="44.315462288419596" lon="11.47571263145168"><ele>174.33333333333331</ele><time>2026-03-22T15:34:53Z</time></trkpt><trkpt lat="44.31554486945111" lon="11.475930383707743"><ele>173.0</ele><time>2026-03-22T15:34:54Z</time></trkpt><trkpt lat="44.315615284190336" lon="11.476115189975692"><ele>174.75</ele><time>2026-03-22T15:34:55Z</time></trkpt><trkpt lat="44.31569557432336" lon="11.476284240655412"><ele>176.5</ele><time>2026-03-22T15:34:56Z</time></trkpt><trkpt lat="44.315758123325566" lon="11.476456093724625"><ele>178.25</ele><time>2026-03-22T15:34:57Z</time></trkpt><trkpt lat="44.31581997197697" lon="11.476614860120259"><ele>180.0</ele><time>2026-03-22T15:34:58Z</time></trkpt><trkpt lat="44.31587666071576" lon="11.47676173907174"><ele>180.0</ele><time>2026-03-22T15:34:59Z</time></trkpt><trkpt lat="44.31593834604455" lon="11.476899376515751"><ele>180.0</ele><time>2026-03-22T15:35:00Z</time></trkpt><trkpt lat="44.31602863782534" lon="11.477034093650122"><ele>180.0</ele><time>2026-03-22T15:35:01Z</time></trkpt><trkpt lat="44.31614800342107" lon="11.477152452470408"><ele>180.0</ele><time>2026-03-22T15:35:02Z</time></trkpt><trkpt lat="44.31628102985764" lon="11.477259274968787"><ele>180.25</ele><time>2026-03-22T15:35:03Z</time></trkpt><trkpt lat="44.31641240624835" lon="11.477358740053797"><ele>180.5</ele><time>2026-03-22T15:35:04Z</time></trkpt><trkpt lat="44.316520818913844" lon="11.477472339804233"><ele>180.75</ele><time>2026-03-22T15:35:05Z</time></trkpt><trkpt lat="44.31662368141365" lon="11.477582886514567"><ele>181.0</ele><time>2026-03-22T15:35:06Z</time></trkpt><trkpt lat="44.31670793114996" lon="11.477726079472806"><ele>181.0</ele><time>2026-03-22T15:35:07Z</time></trkpt><trkpt lat="44.31676829372358" lon="11.47789440644482"><ele>181.0</ele><time>2026-03-22T15:35:08Z</time></trkpt><trkpt lat="44.316827098231585" lon="11.478054150726072"><ele>181.0</ele><time>2026-03-22T15:35:09Z</time></trkpt><trkpt lat="44.31689981161606" lon="11.478203592595865"><ele>181.0</ele><time>2026-03-22T15:35:10Z</time></trkpt><trkpt lat="44.31697385833263" lon="11.478354185773807"><ele>181.5</ele><time>2026-03-22T15:35:11Z</time></trkpt><trkpt lat="44.317057198746035" lon="11.478491557550134"><ele>182.0</ele><time>2026-03-22T15:35:12Z</time></trkpt><trkpt lat="44.317152113411105" lon="11.478608947148789"><ele>182.5</ele><time>2026-03-22T15:35:13Z</time></trkpt><trkpt lat="44.31725901693124" lon="11.478717769477873"><ele>183.0</ele><time>2026-03-22T15:35:14Z</time></trkpt><trkpt lat="44.31737211496141" lon="11.478831372892778"><ele>181.0</ele><time>2026-03-22T15:35:15Z</time></trkpt><trkpt lat="44.31748695753992" lon="11.478933869187962"><ele>179.0</ele><time>2026-03-22T15:35:16Z</time></trkpt><trkpt lat="44.31758315528253" lon="11.479047848243937"><ele>177.0</ele><time>2026-03-22T15:35:17Z</time></trkpt><trkpt lat="44.31768322252404" lon="11.479166089214111"><ele>175.0</ele><time>2026-03-22T15:35:18Z</time></trkpt><trkpt lat="44.3177735424146" lon="11.479304825875788"><ele>175.0</ele><time>2026-03-22T15:35:19Z</time></trkpt><trkpt lat="44.31783561098162" lon="11.479450071782637"><ele>175.0</ele><time>2026-03-22T15:35:20Z</time></trkpt><trkpt lat="44.31790480085812" lon="11.479581955614986"><ele>175.0</ele><time>2026-03-22T15:35:21Z</time></trkpt><trkpt lat="44.31796686721143" lon="11.479724330296408"><ele>175.0</ele><time>2026-03-22T15:35:22Z</time></trkpt><trkpt lat="44.31805155233644" lon="11.479850961220142"><ele>176.25</ele><time>2026-03-22T15:35:23Z</time></trkpt><trkpt lat="44.318162803422865" lon="11.479959288270058"><ele>177.5</ele><time>2026-03-22T15:35:24Z</time></trkpt><trkpt lat="44.31827415828993" lon="11.480049232636832"><ele>178.75</ele><time>2026-03-22T15:35:25Z</time></trkpt><trkpt lat="44.318390737260955" lon="11.480139176353653"><ele>180.0</ele><time>2026-03-22T15:35:26Z</time></trkpt><trkpt lat="44.31851613583655" lon="11.480239379673579"><ele>180.0</ele><time>2026-03-22T15:35:27Z</time></trkpt><trkpt lat="44.318627200852504" lon="11.480374834459353"><ele>180.0</ele><time>2026-03-22T15:35:28Z</time></trkpt><trkpt lat="44.318741054901494" lon="11.480494384291909"><ele>180.0</ele><time>2026-03-22T15:35:29Z</time></trkpt><trkpt lat="44.31884310801125" lon="11.48064817511961"><ele>180.0</ele><time>2026-03-22T15:35:30Z</time></trkpt><trkpt lat="44.318944286548046" lon="11.480813928388617"><ele>180.0</ele><time>2026-03-22T15:35:31Z</time></trkpt><trkpt lat="44.3190371811246" lon="11.480984123187051"><ele>180.0</ele><time>2026-03-22T15:35:32Z</time></trkpt><trkpt lat="44.31912786845936" lon="11.481152572037237"><ele>180.0</ele><time>2026-03-22T15:35:33Z</time></trkpt><trkpt lat="44.31921562669098" lon="11.481318583302219"><ele>178.33333333333334</ele><time>2026-03-22T15:35:34Z</time></trkpt><trkpt lat="44.31930053847411" lon="11.48148318486986"><ele>176.66666666666669</ele><time>2026-03-22T15:35:35Z</time></trkpt><trkpt lat="44.3193833689934" lon="11.481657718640532"><ele>175.0</ele><time>2026-03-22T15:35:36Z</time></trkpt><trkpt lat="44.31946938340327" lon="11.481837667391996"><ele>175.0</ele><time>2026-03-22T15:35:37Z</time></trkpt><trkpt lat="44.319551779207714" lon="11.482017391210546"><ele>175.0</ele><time>2026-03-22T15:35:38Z</time></trkpt><trkpt lat="44.31963403933042" lon="11.482196169156195"><ele>175.0</ele><time>2026-03-22T15:35:39Z</time></trkpt><trkpt lat="44.31971382007403" lon="11.482373361156593"><ele>176.33333333333334</ele><time>2026-03-22T15:35:40Z</time></trkpt><trkpt lat="44.3197987319787" lon="11.48255051942925"><ele>177.66666666666666</ele><time>2026-03-22T15:35:41Z</time></trkpt><trkpt lat="44.319894991230484" lon="11.482724197020174"><ele>179.0</ele><time>2026-03-22T15:35:42Z</time></trkpt><trkpt lat="44.31995827331555" lon="11.482918662905075"><ele>178.25</ele><time>2026-03-22T15:35:43Z</time></trkpt><trkpt lat="44.320039129514726" lon="11.483091084118916"><ele>177.5</ele><time>2026-03-22T15:35:44Z</time></trkpt><trkpt lat="44.32009306167863" lon="11.483261529205274"><ele>176.75</ele><time>2026-03-22T15:35:45Z</time></trkpt><trkpt lat="44.32014415835943" lon="11.483427286464496"><ele>176.0</ele><time>2026-03-22T15:35:46Z</time></trkpt><trkpt lat="44.32018138182468" lon="11.483589113002571"><ele>176.0</ele><time>2026-03-22T15:35:47Z</time></trkpt><trkpt lat="44.32020331178534" lon="11.483753711607324"><ele>176.0</ele><time>2026-03-22T15:35:48Z</time></trkpt><trkpt lat="44.32020845733125" lon="11.483902375071649"><ele>176.0</ele><time>2026-03-22T15:35:49Z</time></trkpt><trkpt lat="44.32021377995" lon="11.484048639446621"><ele>176.0</ele><time>2026-03-22T15:35:50Z</time></trkpt><trkpt lat="44.32021306979144" lon="11.484173965392904"><ele>176.0</ele><time>2026-03-22T15:35:51Z</time></trkpt><trkpt lat="44.320214695228906" lon="11.484310108936773"><ele>175.4</ele><time>2026-03-22T15:35:52Z</time></trkpt><trkpt lat="44.32021863486741" lon="11.484452774325131"><ele>174.8</ele><time>2026-03-22T15:35:53.001Z</time></trkpt><trkpt lat="44.32022021967102" lon="11.48459542922463"><ele>174.20000000000002</ele><time>2026-03-22T15:35:54.001Z</time></trkpt><trkpt lat="44.32021432765568" lon="11.48475236762269"><ele>173.60000000000002</ele><time>2026-03-22T15:35:55.001Z</time></trkpt><trkpt lat="44.32021030504327" lon="11.484919048485382"><ele>173.0</ele><time>2026-03-22T15:35:56.001Z</time></trkpt><trkpt lat="44.32021363222031" lon="11.485104053799438"><ele>173.0</ele><time>2026-03-22T15:35:57.001Z</time></trkpt><trkpt lat="44.32021665823349" lon="11.48530906368736"><ele>173.0</ele><time>2026-03-22T15:35:58.001Z</time></trkpt><trkpt lat="44.320212168636736" lon="11.48549853777716"><ele>173.0</ele><time>2026-03-22T15:35:59.001Z</time></trkpt><trkpt lat="44.32021290039317" lon="11.48566913832358"><ele>173.0</ele><time>2026-03-22T15:36:00.001Z</time></trkpt><trkpt lat="44.320211540752446" lon="11.48582611083869"><ele>173.25</ele><time>2026-03-22T15:36:01.001Z</time></trkpt><trkpt lat="44.32020287072494" lon="11.486002484195188"><ele>173.5</ele><time>2026-03-22T15:36:02.001Z</time></trkpt><trkpt lat="44.32016294367378" lon="11.486184154459075"><ele>173.75</ele><time>2026-03-22T15:36:03.001Z</time></trkpt><trkpt lat="44.3200708997198" lon="11.486335283055379"><ele>174.0</ele><time>2026-03-22T15:36:04.001Z</time></trkpt><trkpt lat="44.31998779965696" lon="11.486471509150228"><ele>174.75</ele><time>2026-03-22T15:36:05.001Z</time></trkpt><trkpt lat="44.31991839525433" lon="11.486602568060853"><ele>175.5</ele><time>2026-03-22T15:36:06.001Z</time></trkpt><trkpt lat="44.31983304631446" lon="11.486730290368655"><ele>176.25</ele><time>2026-03-22T15:36:07.001Z</time></trkpt><trkpt lat="44.319757456614106" lon="11.486855165980993"><ele>177.0</ele><time>2026-03-22T15:36:08.001Z</time></trkpt><trkpt lat="44.3197180607322" lon="11.48701603643369"><ele>174.25</ele><time>2026-03-22T15:36:09.001Z</time></trkpt><trkpt lat="44.31970115306059" lon="11.487186083155729"><ele>171.5</ele><time>2026-03-22T15:36:10.001Z</time></trkpt><trkpt lat="44.319707746246564" lon="11.487377605270401"><ele>168.75</ele><time>2026-03-22T15:36:11.001Z</time></trkpt><trkpt lat="44.319721401191146" lon="11.487578982465056"><ele>166.0</ele><time>2026-03-22T15:36:12.001Z</time></trkpt><trkpt lat="44.31973040297976" lon="11.487777365851231"><ele>166.0</ele><time>2026-03-22T15:36:13.001Z</time></trkpt><trkpt lat="44.319733211557796" lon="11.487981885834733"><ele>166.0</ele><time>2026-03-22T15:36:14.001Z</time></trkpt><trkpt lat="44.31973867148053" lon="11.48819410635247"><ele>166.0</ele><time>2026-03-22T15:36:15.001Z</time></trkpt><trkpt lat="44.31973481900407" lon="11.488399032062803"><ele>166.0</ele><time>2026-03-22T15:36:16.001Z</time></trkpt><trkpt lat="44.31970053628401" lon="11.48858913284169"><ele>166.5</ele><time>2026-03-22T15:36:17.001Z</time></trkpt><trkpt lat="44.31962602051381" lon="11.488776789540625"><ele>167.0</ele><time>2026-03-22T15:36:18.001Z</time></trkpt><trkpt lat="44.31958242397603" lon="11.48896907990122"><ele>167.5</ele><time>2026-03-22T15:36:19.001Z</time></trkpt><trkpt lat="44.319528020671875" lon="11.48912944287612"><ele>168.0</ele><time>2026-03-22T15:36:20.001Z</time></trkpt><trkpt lat="44.319491912573824" lon="11.489297482031557"><ele>168.0</ele><time>2026-03-22T15:36:21.001Z</time></trkpt><trkpt lat="44.31947073027975" lon="11.489481340927092"><ele>168.0</ele><time>2026-03-22T15:36:22.001Z</time></trkpt><trkpt lat="44.31947244668979" lon="11.489691538900649"><ele>168.0</ele><time>2026-03-22T15:36:23.001Z</time></trkpt><trkpt lat="44.31948835284213" lon="11.489912908221884"><ele>168.0</ele><time>2026-03-22T15:36:24.001Z</time></trkpt><trkpt lat="44.31949796794216" lon="11.490135912802097"><ele>167.33333333333334</ele><time>2026-03-22T15:36:25.001Z</time></trkpt><trkpt lat="44.31949702797452" lon="11.490367561850647"><ele>166.66666666666669</ele><time>2026-03-22T15:36:26.001Z</time></trkpt><trkpt lat="44.31946597267664" lon="11.490575099062037"><ele>166.0</ele><time>2026-03-22T15:36:27.001Z</time></trkpt><trkpt lat="44.31943912881476" lon="11.490757175873993"><ele>166.0</ele><time>2026-03-22T15:36:28.001Z</time></trkpt><trkpt lat="44.319418407703424" lon="11.490929755291035"><ele>166.0</ele><time>2026-03-22T15:36:29.001Z</time></trkpt><trkpt lat="44.31938374553359" lon="11.491101225017152"><ele>166.0</ele><time>2026-03-22T15:36:30.001Z</time></trkpt><trkpt lat="44.31935845533959" lon="11.491269936240638"><ele>166.0</ele><time>2026-03-22T15:36:31.001Z</time></trkpt><trkpt lat="44.31934131453089" lon="11.491439855853326"><ele>167.25</ele><time>2026-03-22T15:36:32.001Z</time></trkpt><trkpt lat="44.31933329904865" lon="11.491619021056803"><ele>168.5</ele><time>2026-03-22T15:36:33.001Z</time></trkpt><trkpt lat="44.31933565908967" lon="11.491801516337441"><ele>169.75</ele><time>2026-03-22T15:36:34.001Z</time></trkpt><trkpt lat="44.319342065705584" lon="11.49198273839649"><ele>171.0</ele><time>2026-03-22T15:36:35.001Z</time></trkpt><trkpt lat="44.319356520321755" lon="11.492164361886127"><ele>171.75</ele><time>2026-03-22T15:36:36.001Z</time></trkpt><trkpt lat="44.31938172999344" lon="11.49234684593507"><ele>172.5</ele><time>2026-03-22T15:36:37.001Z</time></trkpt><trkpt lat="44.319416700974095" lon="11.492521735816382"><ele>173.25</ele><time>2026-03-22T15:36:38.001Z</time></trkpt><trkpt lat="44.31946471695216" lon="11.492719174064966"><ele>174.0</ele><time>2026-03-22T15:36:39.001Z</time></trkpt><trkpt lat="44.31952148193031" lon="11.492901895341332"><ele>174.0</ele><time>2026-03-22T15:36:40.001Z</time></trkpt><trkpt lat="44.31958214003853" lon="11.49307948095193"><ele>174.0</ele><time>2026-03-22T15:36:41.001Z</time></trkpt><trkpt lat="44.31964705229797" lon="11.493233759184042"><ele>174.0</ele><time>2026-03-22T15:36:42.001Z</time></trkpt><trkpt lat="44.31971196936699" lon="11.49337039667788"><ele>174.0</ele><time>2026-03-22T15:36:43.001Z</time></trkpt><trkpt lat="44.31976257364412" lon="11.493497296618967"><ele>174.0</ele><time>2026-03-22T15:36:44.001Z</time></trkpt><trkpt lat="44.31979473801425" lon="11.493649124093857"><ele>174.0</ele><time>2026-03-22T15:36:45.001Z</time></trkpt><trkpt lat="44.31981392450765" lon="11.493831412467502"><ele>174.0</ele><time>2026-03-22T15:36:46.001Z</time></trkpt><trkpt lat="44.319811924235786" lon="11.494026707331088"><ele>174.0</ele><time>2026-03-22T15:36:47.001Z</time></trkpt><trkpt lat="44.319781921343456" lon="11.494224680128648"><ele>171.25</ele><time>2026-03-22T15:36:48.001Z</time></trkpt><trkpt lat="44.31971658158036" lon="11.494405025235055"><ele>168.5</ele><time>2026-03-22T15:36:49.001Z</time></trkpt><trkpt lat="44.31966678243902" lon="11.4945825468074"><ele>165.75</ele><time>2026-03-22T15:36:50.001Z</time></trkpt><trkpt lat="44.31962197066224" lon="11.49476924754032"><ele>163.0</ele><time>2026-03-22T15:36:51.001Z</time></trkpt><trkpt lat="44.31957826159946" lon="11.49494987353209"><ele>162.5</ele><time>2026-03-22T15:36:52.001Z</time></trkpt><trkpt lat="44.319542032712675" lon="11.49513530006101"><ele>162.0</ele><time>2026-03-22T15:36:53.001Z</time></trkpt><trkpt lat="44.319510868624086" lon="11.495325736364467"><ele>161.5</ele><time>2026-03-22T15:36:54.001Z</time></trkpt><trkpt lat="44.31949721242923" lon="11.495531642959756"><ele>161.0</ele><time>2026-03-22T15:36:55.001Z</time></trkpt><trkpt lat="44.31951044261081" lon="11.49575746963273"><ele>160.66666666666666</ele><time>2026-03-22T15:36:56.001Z</time></trkpt><trkpt lat="44.31953747138368" lon="11.49597723620676"><ele>160.33333333333334</ele><time>2026-03-22T15:36:57.001Z</time></trkpt><trkpt lat="44.31955464027093" lon="11.496191761223642"><ele>160.0</ele><time>2026-03-22T15:36:58.001Z</time></trkpt><trkpt lat="44.319526618310576" lon="11.496411646140505"><ele>159.66666666666669</ele><time>2026-03-22T15:36:59.001Z</time></trkpt><trkpt lat="44.319504600630566" lon="11.496629401623904"><ele>159.33333333333334</ele><time>2026-03-22T15:37:00.001Z</time></trkpt><trkpt lat="44.31945562328767" lon="11.496834795421115"><ele>159.0</ele><time>2026-03-22T15:37:01.001Z</time></trkpt><trkpt lat="44.3194042445197" lon="11.497018413194308"><ele>159.0</ele><time>2026-03-22T15:37:02.001Z</time></trkpt><trkpt lat="44.31936314335053" lon="11.497183917471238"><ele>159.0</ele><time>2026-03-22T15:37:03.001Z</time></trkpt><trkpt lat="44.319326773999556" lon="11.497352771324524"><ele>159.0</ele><time>2026-03-22T15:37:04.001Z</time></trkpt><trkpt lat="44.31929275361661" lon="11.497528123050245"><ele>159.0</ele><time>2026-03-22T15:37:05.001Z</time></trkpt><trkpt lat="44.319265182561416" lon="11.49770974264783"><ele>159.0</ele><time>2026-03-22T15:37:06.001Z</time></trkpt><trkpt lat="44.31924562422385" lon="11.497886063517955"><ele>159.0</ele><time>2026-03-22T15:37:07.001Z</time></trkpt><trkpt lat="44.31923593612622" lon="11.49807023461553"><ele>159.0</ele><time>2026-03-22T15:37:08.001Z</time></trkpt><trkpt lat="44.31923193770332" lon="11.498245307613015"><ele>159.0</ele><time>2026-03-22T15:37:09.001Z</time></trkpt><trkpt lat="44.31924646616595" lon="11.498409417768833"><ele>159.25</ele><time>2026-03-22T15:37:10.001Z</time></trkpt><trkpt lat="44.31927245686177" lon="11.498568895328761"><ele>159.5</ele><time>2026-03-22T15:37:11.001Z</time></trkpt><trkpt lat="44.319318496111215" lon="11.498731925811105"><ele>159.75</ele><time>2026-03-22T15:37:12.001Z</time></trkpt><trkpt lat="44.31939342025117" lon="11.49889315655489"><ele>160.0</ele><time>2026-03-22T15:37:13Z</time></trkpt><trkpt lat="44.31948093422622" lon="11.499048297702638"><ele>159.5</ele><time>2026-03-22T15:37:14Z</time></trkpt><trkpt lat="44.31956557530752" lon="11.499209798246724"><ele>159.0</ele><time>2026-03-22T15:37:15Z</time></trkpt><trkpt lat="44.3196108207253" lon="11.499397601109985"><ele>158.5</ele><time>2026-03-22T15:37:16Z</time></trkpt><trkpt lat="44.31964402230937" lon="11.499568684394514"><ele>158.0</ele><time>2026-03-22T15:37:17Z</time></trkpt><trkpt lat="44.319665803581024" lon="11.499723389029581"><ele>158.0</ele><time>2026-03-22T15:37:18Z</time></trkpt><trkpt lat="44.319693788084" lon="11.499862207917946"><ele>158.0</ele><time>2026-03-22T15:37:19Z</time></trkpt><trkpt lat="44.31970177757626" lon="11.500001545294465"><ele>158.0</ele><time>2026-03-22T15:37:20Z</time></trkpt><trkpt lat="44.31971949395542" lon="11.50013964946439"><ele>158.0</ele><time>2026-03-22T15:37:21Z</time></trkpt><trkpt lat="44.319734662391646" lon="11.500264157228106"><ele>158.0</ele><time>2026-03-22T15:37:22Z</time></trkpt><trkpt lat="44.31975380709591" lon="11.500372430360978"><ele>159.2</ele><time>2026-03-22T15:37:23Z</time></trkpt><trkpt lat="44.319772227693356" lon="11.500487917102634"><ele>160.4</ele><time>2026-03-22T15:37:24Z</time></trkpt><trkpt lat="44.31978482405277" lon="11.5006099149192"><ele>161.6</ele><time>2026-03-22T15:37:25Z</time></trkpt><trkpt lat="44.31978875362523" lon="11.500735721029193"><ele>162.79999999999998</ele><time>2026-03-22T15:37:26Z</time></trkpt><trkpt lat="44.319760942610905" lon="11.500863848031145"><ele>164.0</ele><time>2026-03-22T15:37:27Z</time></trkpt><trkpt lat="44.319747548193234" lon="11.50099505135669"><ele>164.0</ele><time>2026-03-22T15:37:28Z</time></trkpt><trkpt lat="44.319736591722766" lon="11.50112964008093"><ele>164.0</ele><time>2026-03-22T15:37:29Z</time></trkpt><trkpt lat="44.31975173678787" lon="11.501280262103707"><ele>164.0</ele><time>2026-03-22T15:37:30Z</time></trkpt><trkpt lat="44.31976095332451" lon="11.501599327975214"><ele>164.0</ele><time>2026-03-22T15:37:32Z</time></trkpt><trkpt lat="44.31976685889313" lon="11.501752158405994"><ele>163.25</ele><time>2026-03-22T15:37:33Z</time></trkpt><trkpt lat="44.31976495268191" lon="11.501911589174226"><ele>162.5</ele><time>2026-03-22T15:37:34Z</time></trkpt><trkpt lat="44.31975378325252" lon="11.502079807272814"><ele>161.75</ele><time>2026-03-22T15:37:35Z</time></trkpt><trkpt lat="44.31973886849991" lon="11.50224399973984"><ele>161.0</ele><time>2026-03-22T15:37:36Z</time></trkpt><trkpt lat="44.31969551522358" lon="11.502407006615945"><ele>159.75</ele><time>2026-03-22T15:37:37Z</time></trkpt><trkpt lat="44.31962090348603" lon="11.502555844069963"><ele>158.5</ele><time>2026-03-22T15:37:38Z</time></trkpt><trkpt lat="44.31955804756237" lon="11.50271515193463"><ele>157.25</ele><time>2026-03-22T15:37:39Z</time></trkpt><trkpt lat="44.31950863774875" lon="11.502884137475329"><ele>156.0</ele><time>2026-03-22T15:37:40Z</time></trkpt><trkpt lat="44.319447467271715" lon="11.503054700107045"><ele>156.0</ele><time>2026-03-22T15:37:41Z</time></trkpt><trkpt lat="44.319390214102825" lon="11.503235962958716"><ele>156.0</ele><time>2026-03-22T15:37:42Z</time></trkpt><trkpt lat="44.319349080943056" lon="11.503421739145166"><ele>156.0</ele><time>2026-03-22T15:37:43Z</time></trkpt><trkpt lat="44.31932887732757" lon="11.50361459614154"><ele>156.0</ele><time>2026-03-22T15:37:44Z</time></trkpt><trkpt lat="44.31930910201647" lon="11.503819843160123"><ele>154.66666666666666</ele><time>2026-03-22T15:37:45.001Z</time></trkpt><trkpt lat="44.319315777929035" lon="11.504031389140215"><ele>153.33333333333331</ele><time>2026-03-22T15:37:46.001Z</time></trkpt><trkpt lat="44.319352675294624" lon="11.504255921147829"><ele>152.0</ele><time>2026-03-22T15:37:47.001Z</time></trkpt><trkpt lat="44.319379793533734" lon="11.504480283869823"><ele>151.66666666666666</ele><time>2026-03-22T15:37:48.001Z</time></trkpt><trkpt lat="44.31939663012638" lon="11.504712740433687"><ele>151.33333333333334</ele><time>2026-03-22T15:37:49.001Z</time></trkpt><trkpt lat="44.31942995182194" lon="11.504940958675329"><ele>151.0</ele><time>2026-03-22T15:37:50.001Z</time></trkpt><trkpt lat="44.319464110116066" lon="11.505160636916521"><ele>151.0</ele><time>2026-03-22T15:37:51.001Z</time></trkpt><trkpt lat="44.31949962694599" lon="11.50537705688724"><ele>151.0</ele><time>2026-03-22T15:37:52.001Z</time></trkpt><trkpt lat="44.31955131961135" lon="11.50558691048631"><ele>151.0</ele><time>2026-03-22T15:37:53.001Z</time></trkpt><trkpt lat="44.31958694092698" lon="11.505804111172091"><ele>150.66666666666669</ele><time>2026-03-22T15:37:54.001Z</time></trkpt><trkpt lat="44.31962241307606" lon="11.50602349508172"><ele>150.33333333333334</ele><time>2026-03-22T15:37:55.001Z</time></trkpt><trkpt lat="44.3196421887022" lon="11.50624476030378"><ele>150.0</ele><time>2026-03-22T15:37:56.001Z</time></trkpt><trkpt lat="44.319676530407136" lon="11.506454908755046"><ele>149.33333333333334</ele><time>2026-03-22T15:37:57.001Z</time></trkpt><trkpt lat="44.319711953305465" lon="11.506669261473457"><ele>148.66666666666669</ele><time>2026-03-22T15:37:58.001Z</time></trkpt><trkpt lat="44.319747618381626" lon="11.506884580466677"><ele>148.0</ele><time>2026-03-22T15:37:59.001Z</time></trkpt><trkpt lat="44.31979922092168" lon="11.507096020216052"><ele>150.25</ele><time>2026-03-22T15:38:00.001Z</time></trkpt><trkpt lat="44.31983451251153" lon="11.507307665783525"><ele>152.5</ele><time>2026-03-22T15:38:01.001Z</time></trkpt><trkpt lat="44.319851546209065" lon="11.507510572684858"><ele>154.75</ele><time>2026-03-22T15:38:02.001Z</time></trkpt><trkpt lat="44.31988439764926" lon="11.507704407525589"><ele>157.0</ele><time>2026-03-22T15:38:03.001Z</time></trkpt><trkpt lat="44.31991596568725" lon="11.507890669708798"><ele>156.0</ele><time>2026-03-22T15:38:04.001Z</time></trkpt><trkpt lat="44.31994910579802" lon="11.508078894238619"><ele>155.0</ele><time>2026-03-22T15:38:05.001Z</time></trkpt><trkpt lat="44.31999789299846" lon="11.508256737434063"><ele>154.0</ele><time>2026-03-22T15:38:06.001Z</time></trkpt><trkpt lat="44.32001826886163" lon="11.508433717914997"><ele>153.0</ele><time>2026-03-22T15:38:07.001Z</time></trkpt><trkpt lat="44.32005046400205" lon="11.508591877228575"><ele>153.25</ele><time>2026-03-22T15:38:08.001Z</time></trkpt><trkpt lat="44.320074420062156" lon="11.508749286388712"><ele>153.5</ele><time>2026-03-22T15:38:09.001Z</time></trkpt><trkpt lat="44.32008162650685" lon="11.508914685046843"><ele>153.75</ele><time>2026-03-22T15:38:10.001Z</time></trkpt><trkpt lat="44.32004206917741" lon="11.509071993636834"><ele>154.0</ele><time>2026-03-22T15:38:11.001Z</time></trkpt><trkpt lat="44.32001943310682" lon="11.509222416620045"><ele>154.0</ele><time>2026-03-22T15:38:12.001Z</time></trkpt><trkpt lat="44.3199820031205" lon="11.50935260338034"><ele>154.0</ele><time>2026-03-22T15:38:13.001Z</time></trkpt><trkpt lat="44.31996582533867" lon="11.509499575074505"><ele>154.0</ele><time>2026-03-22T15:38:14.001Z</time></trkpt><trkpt lat="44.319975571338254" lon="11.509642640279509"><ele>154.0</ele><time>2026-03-22T15:38:15.001Z</time></trkpt><trkpt lat="44.32001628329296" lon="11.50978227822224"><ele>154.0</ele><time>2026-03-22T15:38:16.001Z</time></trkpt><trkpt lat="44.32008274946701" lon="11.509927201076815"><ele>153.25</ele><time>2026-03-22T15:38:17.001Z</time></trkpt><trkpt lat="44.32018677175213" lon="11.510049154157485"><ele>152.5</ele><time>2026-03-22T15:38:18.001Z</time></trkpt><trkpt lat="44.32029760800809" lon="11.5101704758285"><ele>151.75</ele><time>2026-03-22T15:38:19.001Z</time></trkpt><trkpt lat="44.32041705891176" lon="11.510296881491188"><ele>151.0</ele><time>2026-03-22T15:38:20.001Z</time></trkpt><trkpt lat="44.32053346578618" lon="11.51043514282626"><ele>152.33333333333334</ele><time>2026-03-22T15:38:21.001Z</time></trkpt><trkpt lat="44.320626407908065" lon="11.51060796991908"><ele>153.66666666666666</ele><time>2026-03-22T15:38:22.001Z</time></trkpt><trkpt lat="44.320739491008354" lon="11.510757041571793"><ele>155.0</ele><time>2026-03-22T15:38:23.001Z</time></trkpt><trkpt lat="44.32084426847181" lon="11.510904344075279"><ele>155.0</ele><time>2026-03-22T15:38:24.001Z</time></trkpt><trkpt lat="44.320974347990074" lon="11.5110312905319"><ele>155.0</ele><time>2026-03-22T15:38:25.001Z</time></trkpt><trkpt lat="44.32110931185046" lon="11.511136107018142"><ele>155.0</ele><time>2026-03-22T15:38:26.001Z</time></trkpt><trkpt lat="44.32124230279727" lon="11.51124600482742"><ele>153.75</ele><time>2026-03-22T15:38:27.001Z</time></trkpt><trkpt lat="44.321358570499704" lon="11.511379069925763"><ele>152.5</ele><time>2026-03-22T15:38:28.001Z</time></trkpt><trkpt lat="44.32145844713951" lon="11.511515946722147"><ele>151.25</ele><time>2026-03-22T15:38:29.001Z</time></trkpt><trkpt lat="44.32155247306773" lon="11.511642216119682"><ele>150.0</ele><time>2026-03-22T15:38:30.001Z</time></trkpt><trkpt lat="44.32164428898728" lon="11.511761502509316"><ele>152.0</ele><time>2026-03-22T15:38:31.001Z</time></trkpt><trkpt lat="44.32172346915289" lon="11.511868493311987"><ele>154.0</ele><time>2026-03-22T15:38:32.001Z</time></trkpt><trkpt lat="44.32178150556149" lon="11.511992544546812"><ele>156.0</ele><time>2026-03-22T15:38:33.001Z</time></trkpt><trkpt lat="44.321804938574836" lon="11.512158080082372"><ele>158.0</ele><time>2026-03-22T15:38:34.001Z</time></trkpt><trkpt lat="44.321810952223615" lon="11.512329642053075"><ele>158.0</ele><time>2026-03-22T15:38:35.001Z</time></trkpt><trkpt lat="44.32178416197086" lon="11.512509538155998"><ele>158.0</ele><time>2026-03-22T15:38:36.001Z</time></trkpt><trkpt lat="44.321742481547844" lon="11.512687350438208"><ele>158.0</ele><time>2026-03-22T15:38:37.001Z</time></trkpt><trkpt lat="44.32170177188356" lon="11.512870675422706"><ele>158.0</ele><time>2026-03-22T15:38:38.001Z</time></trkpt><trkpt lat="44.321648833606176" lon="11.513024898453686"><ele>158.25</ele><time>2026-03-22T15:38:39.001Z</time></trkpt><trkpt lat="44.32159120596822" lon="11.513181793894306"><ele>158.5</ele><time>2026-03-22T15:38:40.001Z</time></trkpt><trkpt lat="44.32153877168958" lon="11.513348919458762"><ele>158.75</ele><time>2026-03-22T15:38:41.001Z</time></trkpt><trkpt lat="44.32152053218768" lon="11.513540740402878"><ele>159.0</ele><time>2026-03-22T15:38:42.001Z</time></trkpt><trkpt lat="44.32153055034053" lon="11.513739662899543"><ele>159.5</ele><time>2026-03-22T15:38:43.001Z</time></trkpt><trkpt lat="44.32154034787542" lon="11.513926790957091"><ele>160.0</ele><time>2026-03-22T15:38:44.001Z</time></trkpt><trkpt lat="44.32153123511455" lon="11.514111679117562"><ele>160.5</ele><time>2026-03-22T15:38:45.001Z</time></trkpt><trkpt lat="44.32151578203769" lon="11.514284414109689"><ele>161.0</ele><time>2026-03-22T15:38:46.001Z</time></trkpt><trkpt lat="44.321498350585095" lon="11.514460855918959"><ele>161.5</ele><time>2026-03-22T15:38:47.001Z</time></trkpt><trkpt lat="44.3214846897056" lon="11.514645443047742"><ele>162.0</ele><time>2026-03-22T15:38:48.001Z</time></trkpt><trkpt lat="44.321479618307414" lon="11.514830528752315"><ele>162.5</ele><time>2026-03-22T15:38:49.001Z</time></trkpt><trkpt lat="44.321442207855824" lon="11.515013916279273"><ele>163.0</ele><time>2026-03-22T15:38:50.001Z</time></trkpt><trkpt lat="44.32142573071774" lon="11.51520463573379"><ele>163.0</ele><time>2026-03-22T15:38:51.001Z</time></trkpt><trkpt lat="44.321413371356975" lon="11.515400167148488"><ele>163.0</ele><time>2026-03-22T15:38:52.001Z</time></trkpt><trkpt lat="44.321428866762616" lon="11.515608124289095"><ele>163.0</ele><time>2026-03-22T15:38:53.001Z</time></trkpt><trkpt lat="44.321444212639875" lon="11.515815811800405"><ele>163.0</ele><time>2026-03-22T15:38:54Z</time></trkpt><trkpt lat="44.32144570446435" lon="11.516009180734102"><ele>163.25</ele><time>2026-03-22T15:38:55Z</time></trkpt><trkpt lat="44.321466957913444" lon="11.51619424404392"><ele>163.5</ele><time>2026-03-22T15:38:56Z</time></trkpt><trkpt lat="44.32149661644664" lon="11.516368802119331"><ele>163.75</ele><time>2026-03-22T15:38:57Z</time></trkpt><trkpt lat="44.32152266353243" lon="11.5165379226782"><ele>164.0</ele><time>2026-03-22T15:38:58Z</time></trkpt><trkpt lat="44.3215482754334" lon="11.516705356463103"><ele>163.5</ele><time>2026-03-22T15:38:59Z</time></trkpt><trkpt lat="44.32158322721848" lon="11.516857675671156"><ele>163.0</ele><time>2026-03-22T15:39:00Z</time></trkpt><trkpt lat="44.32164317001398" lon="11.51700712091621"><ele>162.5</ele><time>2026-03-22T15:39:01Z</time></trkpt><trkpt lat="44.32171788588905" lon="11.517167211706408"><ele>162.0</ele><time>2026-03-22T15:39:02Z</time></trkpt><trkpt lat="44.321789543771274" lon="11.517328939478597"><ele>161.0</ele><time>2026-03-22T15:39:03Z</time></trkpt><trkpt lat="44.321853978891426" lon="11.517483643674767"><ele>160.0</ele><time>2026-03-22T15:39:04Z</time></trkpt><trkpt lat="44.321922483963384" lon="11.517648586361956"><ele>159.0</ele><time>2026-03-22T15:39:05Z</time></trkpt><trkpt lat="44.321981711941106" lon="11.517808893155376"><ele>158.0</ele><time>2026-03-22T15:39:06Z</time></trkpt><trkpt lat="44.322039027755636" lon="11.517944663187167"><ele>158.20000000000002</ele><time>2026-03-22T15:39:07Z</time></trkpt><trkpt lat="44.32209325027478" lon="11.518060251579323"><ele>158.4</ele><time>2026-03-22T15:39:08Z</time></trkpt><trkpt lat="44.32215314871271" lon="11.518151393934794"><ele>158.60000000000002</ele><time>2026-03-22T15:39:09Z</time></trkpt><trkpt lat="44.322235563460424" lon="11.518227544497286"><ele>158.8</ele><time>2026-03-22T15:39:10Z</time></trkpt><trkpt lat="44.32234326811142" lon="11.51826579935027"><ele>159.0</ele><time>2026-03-22T15:39:11Z</time></trkpt><trkpt lat="44.32246313144058" lon="11.518256019463255"><ele>159.0</ele><time>2026-03-22T15:39:12Z</time></trkpt><trkpt lat="44.322582740262746" lon="11.518226928003413"><ele>159.0</ele><time>2026-03-22T15:39:13Z</time></trkpt><trkpt lat="44.322695791535345" lon="11.518204831362898"><ele>159.0</ele><time>2026-03-22T15:39:14Z</time></trkpt><trkpt lat="44.322811740145006" lon="11.51822504310351"><ele>159.0</ele><time>2026-03-22T15:39:15Z</time></trkpt><trkpt lat="44.322928121206544" lon="11.518289703120644"><ele>159.0</ele><time>2026-03-22T15:39:16Z</time></trkpt><trkpt lat="44.32304088433105" lon="11.518378027198153"><ele>159.0</ele><time>2026-03-22T15:39:17Z</time></trkpt><trkpt lat="44.323142836718546" lon="11.518470922403138"><ele>159.0</ele><time>2026-03-22T15:39:18Z</time></trkpt><trkpt lat="44.32323695711147" lon="11.518544951051013"><ele>159.0</ele><time>2026-03-22T15:39:19Z</time></trkpt><trkpt lat="44.32333552835034" lon="11.518579002857127"><ele>159.0</ele><time>2026-03-22T15:39:20Z</time></trkpt><trkpt lat="44.32345247711513" lon="11.518573724606657"><ele>159.0</ele><time>2026-03-22T15:39:21Z</time></trkpt><trkpt lat="44.32357718915702" lon="11.518549339762151"><ele>159.0</ele><time>2026-03-22T15:39:22Z</time></trkpt><trkpt lat="44.32370875680401" lon="11.51851469270135"><ele>159.0</ele><time>2026-03-22T15:39:23Z</time></trkpt><trkpt lat="44.323843938364675" lon="11.518539276052445"><ele>158.0</ele><time>2026-03-22T15:39:24Z</time></trkpt><trkpt lat="44.32397591724204" lon="11.518575177855944"><ele>157.0</ele><time>2026-03-22T15:39:25Z</time></trkpt><trkpt lat="44.32410987834462" lon="11.518618285526363"><ele>156.0</ele><time>2026-03-22T15:39:26Z</time></trkpt><trkpt lat="44.32423615161406" lon="11.51869518453919"><ele>155.0</ele><time>2026-03-22T15:39:27Z</time></trkpt><trkpt lat="44.324359788669064" lon="11.518782571302246"><ele>153.75</ele><time>2026-03-22T15:39:28Z</time></trkpt><trkpt lat="44.32448219820674" lon="11.518882547015531"><ele>152.5</ele><time>2026-03-22T15:39:29Z</time></trkpt><trkpt lat="44.32458479835064" lon="11.518980325418433"><ele>151.25</ele><time>2026-03-22T15:39:30Z</time></trkpt><trkpt lat="44.32468378730979" lon="11.519069587545562"><ele>150.0</ele><time>2026-03-22T15:39:31Z</time></trkpt><trkpt lat="44.324779192127814" lon="11.51913973189546"><ele>150.0</ele><time>2026-03-22T15:39:32Z</time></trkpt><trkpt lat="44.32487402566191" lon="11.51921419397774"><ele>150.0</ele><time>2026-03-22T15:39:33Z</time></trkpt><trkpt lat="44.32497608503931" lon="11.519312285101993"><ele>150.0</ele><time>2026-03-22T15:39:34Z</time></trkpt><trkpt lat="44.325076485530836" lon="11.51944690461265"><ele>150.0</ele><time>2026-03-22T15:39:35Z</time></trkpt><trkpt lat="44.325149925335715" lon="11.519611505660462"><ele>149.0</ele><time>2026-03-22T15:39:36Z</time></trkpt><trkpt lat="44.32521414684548" lon="11.519794818783105"><ele>148.0</ele><time>2026-03-22T15:39:37Z</time></trkpt><trkpt lat="44.32526041362962" lon="11.51999730928511"><ele>147.0</ele><time>2026-03-22T15:39:38Z</time></trkpt><trkpt lat="44.32529310361754" lon="11.520185052548431"><ele>146.0</ele><time>2026-03-22T15:39:39Z</time></trkpt><trkpt lat="44.32533480795542" lon="11.520367610576494"><ele>145.25</ele><time>2026-03-22T15:39:40Z</time></trkpt><trkpt lat="44.32539162267332" lon="11.520554433712453"><ele>144.5</ele><time>2026-03-22T15:39:41Z</time></trkpt><trkpt lat="44.325469201703044" lon="11.520737228615017"><ele>143.75</ele><time>2026-03-22T15:39:42Z</time></trkpt><trkpt lat="44.3255570646415" lon="11.520908923936114"><ele>143.0</ele><time>2026-03-22T15:39:43Z</time></trkpt><trkpt lat="44.32564501116847" lon="11.52108349022246"><ele>143.5</ele><time>2026-03-22T15:39:44Z</time></trkpt><trkpt lat="44.32572516315416" lon="11.521243593800756"><ele>144.0</ele><time>2026-03-22T15:39:45Z</time></trkpt><trkpt lat="44.32581056384121" lon="11.521406287059214"><ele>144.5</ele><time>2026-03-22T15:39:46Z</time></trkpt><trkpt lat="44.32589982789581" lon="11.521553116273616"><ele>145.0</ele><time>2026-03-22T15:39:47Z</time></trkpt><trkpt lat="44.32600037759292" lon="11.521686104079112"><ele>145.0</ele><time>2026-03-22T15:39:48Z</time></trkpt><trkpt lat="44.32612192263202" lon="11.521802236511773"><ele>145.0</ele><time>2026-03-22T15:39:49Z</time></trkpt><trkpt lat="44.326227492889366" lon="11.521935659104347"><ele>145.0</ele><time>2026-03-22T15:39:50Z</time></trkpt><trkpt lat="44.326314342586" lon="11.52209006837005"><ele>145.0</ele><time>2026-03-22T15:39:51Z</time></trkpt><trkpt lat="44.3263821862778" lon="11.522244294926294"><ele>146.8</ele><time>2026-03-22T15:39:52Z</time></trkpt><trkpt lat="44.326440293475656" lon="11.52238865111592"><ele>148.6</ele><time>2026-03-22T15:39:53Z</time></trkpt><trkpt lat="44.3264833285704" lon="11.522526323844518"><ele>150.4</ele><time>2026-03-22T15:39:54Z</time></trkpt><trkpt lat="44.32650783126285" lon="11.52265871131074"><ele>152.2</ele><time>2026-03-22T15:39:55Z</time></trkpt><trkpt lat="44.32650655150536" lon="11.522785946987002"><ele>154.0</ele><time>2026-03-22T15:39:56Z</time></trkpt><trkpt lat="44.32647326603051" lon="11.52292542009481"><ele>154.25</ele><time>2026-03-22T15:39:57Z</time></trkpt><trkpt lat="44.32642733026023" lon="11.523073483050846"><ele>154.5</ele><time>2026-03-22T15:39:58Z</time></trkpt><trkpt lat="44.326321325788" lon="11.523166572200175"><ele>154.75</ele><time>2026-03-22T15:39:59Z</time></trkpt><trkpt lat="44.326220575196174" lon="11.52328320062805"><ele>155.0</ele><time>2026-03-22T15:40:00Z</time></trkpt><trkpt lat="44.32613327793416" lon="11.523418339426378"><ele>152.8</ele><time>2026-03-22T15:40:01Z</time></trkpt><trkpt lat="44.32605523858488" lon="11.52353286490042"><ele>150.6</ele><time>2026-03-22T15:40:02Z</time></trkpt><trkpt lat="44.325985656314515" lon="11.523637095434156"><ele>148.4</ele><time>2026-03-22T15:40:03Z</time></trkpt><trkpt lat="44.32592845386187" lon="11.523734725695407"><ele>146.2</ele><time>2026-03-22T15:40:04Z</time></trkpt><trkpt lat="44.32586611046621" lon="11.523837400393882"><ele>144.0</ele><time>2026-03-22T15:40:05Z</time></trkpt><trkpt lat="44.32581360768753" lon="11.523934942546553"><ele>144.0</ele><time>2026-03-22T15:40:06Z</time></trkpt><trkpt lat="44.32577621886143" lon="11.52402353522424"><ele>144.0</ele><time>2026-03-22T15:40:07Z</time></trkpt><trkpt lat="44.32576128855749" lon="11.524144938754716"><ele>144.0</ele><time>2026-03-22T15:40:08Z</time></trkpt><trkpt lat="44.32578095034912" lon="11.52428230616815"><ele>144.0</ele><time>2026-03-22T15:40:09Z</time></trkpt><trkpt lat="44.32584022594739" lon="11.524405616736582"><ele>144.0</ele><time>2026-03-22T15:40:10Z</time></trkpt><trkpt lat="44.32593683382389" lon="11.52448439144869"><ele>144.0</ele><time>2026-03-22T15:40:11Z</time></trkpt><trkpt lat="44.326054508224864" lon="11.524506111754238"><ele>144.0</ele><time>2026-03-22T15:40:12Z</time></trkpt><trkpt lat="44.32618348234438" lon="11.524465368801655"><ele>144.0</ele><time>2026-03-22T15:40:13Z</time></trkpt><trkpt lat="44.32630738225137" lon="11.524429805241489"><ele>144.0</ele><time>2026-03-22T15:40:14Z</time></trkpt><trkpt lat="44.32643520435927" lon="11.524394434857719"><ele>145.25</ele><time>2026-03-22T15:40:15Z</time></trkpt><trkpt lat="44.32657422966046" lon="11.524359532661174"><ele>146.5</ele><time>2026-03-22T15:40:16Z</time></trkpt><trkpt lat="44.32671297937011" lon="11.524345776025797"><ele>147.75</ele><time>2026-03-22T15:40:17Z</time></trkpt><trkpt lat="44.32685272799106" lon="11.524342431606748"><ele>149.0</ele><time>2026-03-22T15:40:18Z</time></trkpt><trkpt lat="44.32699460518944" lon="11.524352825737392"><ele>149.0</ele><time>2026-03-22T15:40:19Z</time></trkpt><trkpt lat="44.32713621484694" lon="11.524369612165613"><ele>149.0</ele><time>2026-03-22T15:40:20Z</time></trkpt><trkpt lat="44.32727125677708" lon="11.524386661217669"><ele>149.0</ele><time>2026-03-22T15:40:21Z</time></trkpt><trkpt lat="44.32739541080894" lon="11.5243998622562"><ele>149.0</ele><time>2026-03-22T15:40:22Z</time></trkpt><trkpt lat="44.32751760204256" lon="11.524413551644546"><ele>149.0</ele><time>2026-03-22T15:40:23Z</time></trkpt><trkpt lat="44.32764772730545" lon="11.5244320150594"><ele>149.0</ele><time>2026-03-22T15:40:24Z</time></trkpt><trkpt lat="44.32778794514908" lon="11.524448944851768"><ele>149.0</ele><time>2026-03-22T15:40:25Z</time></trkpt><trkpt lat="44.327933127306096" lon="11.52450991945528"><ele>149.0</ele><time>2026-03-22T15:40:26Z</time></trkpt><trkpt lat="44.328082499919304" lon="11.52457034001265"><ele>146.25</ele><time>2026-03-22T15:40:27Z</time></trkpt><trkpt lat="44.32821395966958" lon="11.524665365250971"><ele>143.5</ele><time>2026-03-22T15:40:28Z</time></trkpt><trkpt lat="44.32834284998571" lon="11.524750966812656"><ele>140.75</ele><time>2026-03-22T15:40:29Z</time></trkpt><trkpt lat="44.32848122937772" lon="11.52479477505744"><ele>138.0</ele><time>2026-03-22T15:40:30Z</time></trkpt><trkpt lat="44.32862968397639" lon="11.524798369500838"><ele>138.0</ele><time>2026-03-22T15:40:31Z</time></trkpt><trkpt lat="44.32877569592843" lon="11.524791415342694"><ele>138.0</ele><time>2026-03-22T15:40:32Z</time></trkpt><trkpt lat="44.32891400414152" lon="11.524828204955854"><ele>138.0</ele><time>2026-03-22T15:40:33Z</time></trkpt><trkpt lat="44.3290437555943" lon="11.524870802217102"><ele>138.0</ele><time>2026-03-22T15:40:34Z</time></trkpt><trkpt lat="44.32915718017949" lon="11.524921440364777"><ele>137.4</ele><time>2026-03-22T15:40:35Z</time></trkpt><trkpt lat="44.3292538084994" lon="11.524963546597018"><ele>136.8</ele><time>2026-03-22T15:40:36Z</time></trkpt><trkpt lat="44.32933413420211" lon="11.525001741624191"><ele>136.2</ele><time>2026-03-22T15:40:37Z</time></trkpt><trkpt lat="44.32940426793415" lon="11.525043717540784"><ele>135.6</ele><time>2026-03-22T15:40:38Z</time></trkpt><trkpt lat="44.32947915614437" lon="11.52510603339308"><ele>135.0</ele><time>2026-03-22T15:40:39Z</time></trkpt><trkpt lat="44.32954278150618" lon="11.525233255109578"><ele>134.5</ele><time>2026-03-22T15:40:40Z</time></trkpt><trkpt lat="44.329571903404954" lon="11.525399479956368"><ele>134.0</ele><time>2026-03-22T15:40:41Z</time></trkpt><trkpt lat="44.32962644103879" lon="11.525553273280002"><ele>133.5</ele><time>2026-03-22T15:40:42Z</time></trkpt><trkpt lat="44.32966772351596" lon="11.525710748633495"><ele>133.0</ele><time>2026-03-22T15:40:43Z</time></trkpt><trkpt lat="44.329723370033264" lon="11.5258684034305"><ele>132.25</ele><time>2026-03-22T15:40:44Z</time></trkpt><trkpt lat="44.32978275903431" lon="11.526024084197577"><ele>131.5</ele><time>2026-03-22T15:40:45Z</time></trkpt><trkpt lat="44.32985488170788" lon="11.52616788575345"><ele>130.75</ele><time>2026-03-22T15:40:46Z</time></trkpt><trkpt lat="44.32994952899779" lon="11.526302079336931"><ele>130.0</ele><time>2026-03-22T15:40:47Z</time></trkpt><trkpt lat="44.33004553455441" lon="11.526421746074645"><ele>130.0</ele><time>2026-03-22T15:40:48Z</time></trkpt><trkpt lat="44.330137504719474" lon="11.526546106231757"><ele>130.0</ele><time>2026-03-22T15:40:49Z</time></trkpt><trkpt lat="44.33023934349887" lon="11.526665597618262"><ele>130.0</ele><time>2026-03-22T15:40:50Z</time></trkpt><trkpt lat="44.33034457911387" lon="11.526792955211414"><ele>130.0</ele><time>2026-03-22T15:40:51Z</time></trkpt><trkpt lat="44.33045420878604" lon="11.526917169333851"><ele>130.0</ele><time>2026-03-22T15:40:52Z</time></trkpt><trkpt lat="44.33057312377203" lon="11.527043000765973"><ele>130.0</ele><time>2026-03-22T15:40:53Z</time></trkpt><trkpt lat="44.330685783950734" lon="11.527180309950392"><ele>130.0</ele><time>2026-03-22T15:40:54Z</time></trkpt><trkpt lat="44.330799812696974" lon="11.527324285199374"><ele>130.0</ele><time>2026-03-22T15:40:55Z</time></trkpt><trkpt lat="44.33091703420334" lon="11.527480030432317"><ele>130.0</ele><time>2026-03-22T15:40:56Z</time></trkpt><trkpt lat="44.331027349220136" lon="11.527640270656667"><ele>130.0</ele><time>2026-03-22T15:40:57.001Z</time></trkpt><trkpt lat="44.33112010629424" lon="11.527796182415186"><ele>129.0</ele><time>2026-03-22T15:40:58.001Z</time></trkpt><trkpt lat="44.331197375801715" lon="11.527951937464477"><ele>128.0</ele><time>2026-03-22T15:40:59.001Z</time></trkpt><trkpt lat="44.331267053782376" lon="11.528114000226768"><ele>127.0</ele><time>2026-03-22T15:41:00Z</time></trkpt><trkpt lat="44.33132038446906" lon="11.528284314585207"><ele>126.0</ele><time>2026-03-22T15:41:01Z</time></trkpt><trkpt lat="44.331375413861586" lon="11.528458394763483"><ele>127.75</ele><time>2026-03-22T15:41:02Z</time></trkpt><trkpt lat="44.331427441027905" lon="11.528641579959313"><ele>129.5</ele><time>2026-03-22T15:41:03Z</time></trkpt><trkpt lat="44.33147219165025" lon="11.528826937830814"><ele>131.25</ele><time>2026-03-22T15:41:04Z</time></trkpt><trkpt lat="44.33150829730985" lon="11.529026092355108"><ele>133.0</ele><time>2026-03-22T15:41:05Z</time></trkpt><trkpt lat="44.33152715041764" lon="11.529230497115494"><ele>133.0</ele><time>2026-03-22T15:41:06Z</time></trkpt><trkpt lat="44.33153226116417" lon="11.529434059434074"><ele>133.0</ele><time>2026-03-22T15:41:07Z</time></trkpt><trkpt lat="44.33153094258801" lon="11.529632992901826"><ele>133.0</ele><time>2026-03-22T15:41:08Z</time></trkpt><trkpt lat="44.331523432771164" lon="11.52983500876086"><ele>133.0</ele><time>2026-03-22T15:41:09Z</time></trkpt><trkpt lat="44.33151642322647" lon="11.530046074177179"><ele>132.75</ele><time>2026-03-22T15:41:10Z</time></trkpt><trkpt lat="44.33151202627769" lon="11.530264784176781"><ele>132.5</ele><time>2026-03-22T15:41:11Z</time></trkpt><trkpt lat="44.33151656434058" lon="11.530484564792253"><ele>132.25</ele><time>2026-03-22T15:41:12Z</time></trkpt><trkpt lat="44.331518833732574" lon="11.530664703312025"><ele>132.0</ele><time>2026-03-22T15:41:13Z</time></trkpt><trkpt lat="44.33151956009402" lon="11.530834707397037"><ele>132.0</ele><time>2026-03-22T15:41:14Z</time></trkpt><trkpt lat="44.33150269151526" lon="11.530998866427622"><ele>132.0</ele><time>2026-03-22T15:41:15Z</time></trkpt><trkpt lat="44.33151860569075" lon="11.531147649309723"><ele>132.0</ele><time>2026-03-22T15:41:16Z</time></trkpt><trkpt lat="44.33150472560047" lon="11.531289124421159"><ele>132.0</ele><time>2026-03-22T15:41:17Z</time></trkpt><trkpt lat="44.33150346327917" lon="11.531430586174983"><ele>132.0</ele><time>2026-03-22T15:41:18Z</time></trkpt><trkpt lat="44.33150578807624" lon="11.531574972505872"><ele>131.79999999999998</ele><time>2026-03-22T15:41:19Z</time></trkpt><trkpt lat="44.331506299458326" lon="11.53170845593941"><ele>131.6</ele><time>2026-03-22T15:41:20Z</time></trkpt><trkpt lat="44.33149984543174" lon="11.531820474152113"><ele>131.39999999999998</ele><time>2026-03-22T15:41:21Z</time></trkpt><trkpt lat="44.33150546577308" lon="11.531940408600555"><ele>131.2</ele><time>2026-03-22T15:41:22Z</time></trkpt><trkpt lat="44.33153904128452" lon="11.53205695076188"><ele>131.0</ele><time>2026-03-22T15:41:23Z</time></trkpt><trkpt lat="44.33160950857775" lon="11.532182208670053"><ele>130.5</ele><time>2026-03-22T15:41:24Z</time></trkpt><trkpt lat="44.33169517652243" lon="11.532291571324231"><ele>130.0</ele><time>2026-03-22T15:41:25Z</time></trkpt><trkpt lat="44.33179260174024" lon="11.53240476473247"><ele>129.5</ele><time>2026-03-22T15:41:26Z</time></trkpt><trkpt lat="44.33188076412562" lon="11.532520034831728"><ele>129.0</ele><time>2026-03-22T15:41:27Z</time></trkpt><trkpt lat="44.33197324955403" lon="11.53262974081175"><ele>129.0</ele><time>2026-03-22T15:41:28Z</time></trkpt><trkpt lat="44.33207983919912" lon="11.532747948101019"><ele>129.0</ele><time>2026-03-22T15:41:29Z</time></trkpt><trkpt lat="44.33218761469407" lon="11.532859808418381"><ele>129.0</ele><time>2026-03-22T15:41:30Z</time></trkpt><trkpt lat="44.33230347488875" lon="11.532957559579861"><ele>129.0</ele><time>2026-03-22T15:41:31Z</time></trkpt><trkpt lat="44.33242104511062" lon="11.53304630899943"><ele>129.0</ele><time>2026-03-22T15:41:32Z</time></trkpt><trkpt lat="44.33255155488298" lon="11.533114368573488"><ele>129.0</ele><time>2026-03-22T15:41:33Z</time></trkpt><trkpt lat="44.33268505335404" lon="11.533160512602276"><ele>129.0</ele><time>2026-03-22T15:41:34Z</time></trkpt><trkpt lat="44.332826377895636" lon="11.53316942905595"><ele>129.0</ele><time>2026-03-22T15:41:35Z</time></trkpt><trkpt lat="44.33297043731093" lon="11.533143909825418"><ele>128.5</ele><time>2026-03-22T15:41:36Z</time></trkpt><trkpt lat="44.33311552194979" lon="11.53310768656516"><ele>128.0</ele><time>2026-03-22T15:41:37Z</time></trkpt><trkpt lat="44.33326496491384" lon="11.533095597721397"><ele>127.5</ele><time>2026-03-22T15:41:38Z</time></trkpt><trkpt lat="44.33341164453411" lon="11.533153309018529"><ele>127.0</ele><time>2026-03-22T15:41:39Z</time></trkpt><trkpt lat="44.33355260258605" lon="11.533206982560014"><ele>127.0</ele><time>2026-03-22T15:41:40Z</time></trkpt><trkpt lat="44.33369597548729" lon="11.533268224143782"><ele>127.0</ele><time>2026-03-22T15:41:41Z</time></trkpt><trkpt lat="44.333845847330565" lon="11.533315219454382"><ele>127.0</ele><time>2026-03-22T15:41:42Z</time></trkpt><trkpt lat="44.33398944154672" lon="11.533408027798018"><ele>127.0</ele><time>2026-03-22T15:41:43Z</time></trkpt><trkpt lat="44.334137291920634" lon="11.533496239741394"><ele>127.0</ele><time>2026-03-22T15:41:44Z</time></trkpt><trkpt lat="44.33427643449456" lon="11.533618620646813"><ele>127.0</ele><time>2026-03-22T15:41:45Z</time></trkpt><trkpt lat="44.33441410992533" lon="11.533758942260736"><ele>127.0</ele><time>2026-03-22T15:41:46Z</time></trkpt><trkpt lat="44.334564643593374" lon="11.533884483359163"><ele>127.0</ele><time>2026-03-22T15:41:47Z</time></trkpt><trkpt lat="44.33470679893736" lon="11.534033043283566"><ele>127.0</ele><time>2026-03-22T15:41:48Z</time></trkpt><trkpt lat="44.334851274652074" lon="11.534176258099775"><ele>127.0</ele><time>2026-03-22T15:41:49Z</time></trkpt><trkpt lat="44.33499982212703" lon="11.534316038816744"><ele>127.0</ele><time>2026-03-22T15:41:50Z</time></trkpt><trkpt lat="44.33514413099319" lon="11.534459499488523"><ele>127.0</ele><time>2026-03-22T15:41:51Z</time></trkpt><trkpt lat="44.33528333198076" lon="11.534609122650771"><ele>127.0</ele><time>2026-03-22T15:41:52Z</time></trkpt><trkpt lat="44.3354149808778" lon="11.53475117784553"><ele>127.0</ele><time>2026-03-22T15:41:53Z</time></trkpt><trkpt lat="44.335533330879045" lon="11.534887139451072"><ele>127.0</ele><time>2026-03-22T15:41:54Z</time></trkpt><trkpt lat="44.33564468224799" lon="11.53501985443722"><ele>127.5</ele><time>2026-03-22T15:41:55Z</time></trkpt><trkpt lat="44.33575396185473" lon="11.535145347024367"><ele>128.0</ele><time>2026-03-22T15:41:56Z</time></trkpt><trkpt lat="44.33586309923319" lon="11.53526977988369"><ele>128.5</ele><time>2026-03-22T15:41:57Z</time></trkpt><trkpt lat="44.3359747945989" lon="11.535391999298856"><ele>129.0</ele><time>2026-03-22T15:41:58Z</time></trkpt><trkpt lat="44.33608036995262" lon="11.535513064702004"><ele>129.0</ele><time>2026-03-22T15:41:59Z</time></trkpt><trkpt lat="44.336177837814375" lon="11.535626655176554"><ele>129.0</ele><time>2026-03-22T15:42:00Z</time></trkpt><trkpt lat="44.33625247524841" lon="11.535759675345608"><ele>129.0</ele><time>2026-03-22T15:42:01Z</time></trkpt><trkpt lat="44.336339372536905" lon="11.535884272529119"><ele>129.0</ele><time>2026-03-22T15:42:02Z</time></trkpt><trkpt lat="44.33639331636838" lon="11.536052803985896"><ele>131.0</ele><time>2026-03-22T15:42:03Z</time></trkpt><trkpt lat="44.33643219900702" lon="11.53622982610551"><ele>133.0</ele><time>2026-03-22T15:42:04Z</time></trkpt><trkpt lat="44.3364616322549" lon="11.536416934698826"><ele>135.0</ele><time>2026-03-22T15:42:05Z</time></trkpt><trkpt lat="44.3364727758528" lon="11.536610442444143"><ele>137.0</ele><time>2026-03-22T15:42:06Z</time></trkpt><trkpt lat="44.336467002235786" lon="11.536813623848458"><ele>137.0</ele><time>2026-03-22T15:42:07Z</time></trkpt><trkpt lat="44.33646261530899" lon="11.537019962877322"><ele>137.0</ele><time>2026-03-22T15:42:08Z</time></trkpt><trkpt lat="44.33646017957719" lon="11.53722059525377"><ele>137.0</ele><time>2026-03-22T15:42:09Z</time></trkpt><trkpt lat="44.33645547995271" lon="11.537428601103745"><ele>137.0</ele><time>2026-03-22T15:42:10Z</time></trkpt><trkpt lat="44.336452198418804" lon="11.537644862970836"><ele>136.33333333333331</ele><time>2026-03-22T15:42:11Z</time></trkpt><trkpt lat="44.33644625675689" lon="11.537863155980727"><ele>135.66666666666666</ele><time>2026-03-22T15:42:12Z</time></trkpt><trkpt lat="44.33643943983356" lon="11.538079896654931"><ele>135.0</ele><time>2026-03-22T15:42:13Z</time></trkpt><trkpt lat="44.33643298763172" lon="11.538276247946072"><ele>135.0</ele><time>2026-03-22T15:42:14Z</time></trkpt><trkpt lat="44.33642878104903" lon="11.538451136281452"><ele>135.0</ele><time>2026-03-22T15:42:15Z</time></trkpt><trkpt lat="44.336425660092715" lon="11.53861668784554"><ele>135.0</ele><time>2026-03-22T15:42:16Z</time></trkpt><trkpt lat="44.33642408611787" lon="11.538772798420219"><ele>135.0</ele><time>2026-03-22T15:42:17Z</time></trkpt><trkpt lat="44.336426975882254" lon="11.538931009945962"><ele>135.2</ele><time>2026-03-22T15:42:18Z</time></trkpt><trkpt lat="44.336434584317225" lon="11.539076098164644"><ele>135.4</ele><time>2026-03-22T15:42:19Z</time></trkpt><trkpt lat="44.33646320882656" lon="11.539219887169907"><ele>135.6</ele><time>2026-03-22T15:42:20Z</time></trkpt><trkpt lat="44.3365148919552" lon="11.539362401366667"><ele>135.8</ele><time>2026-03-22T15:42:21Z</time></trkpt><trkpt lat="44.33658552897325" lon="11.539497647925781"><ele>136.0</ele><time>2026-03-22T15:42:22Z</time></trkpt><trkpt lat="44.336671612404444" lon="11.539615667811098"><ele>134.75</ele><time>2026-03-22T15:42:23Z</time></trkpt><trkpt lat="44.33677399591301" lon="11.539716834542798"><ele>133.5</ele><time>2026-03-22T15:42:24Z</time></trkpt><trkpt lat="44.33688537494684" lon="11.539811775777721"><ele>132.25</ele><time>2026-03-22T15:42:25Z</time></trkpt><trkpt lat="44.33700399059495" lon="11.539908351509016"><ele>131.0</ele><time>2026-03-22T15:42:26Z</time></trkpt><trkpt lat="44.33712842816624" lon="11.540005839725886"><ele>134.5</ele><time>2026-03-22T15:42:27Z</time></trkpt><trkpt lat="44.337257277687435" lon="11.540109321583651"><ele>138.0</ele><time>2026-03-22T15:42:28Z</time></trkpt><trkpt lat="44.3373801432234" lon="11.540201291712508"><ele>141.5</ele><time>2026-03-22T15:42:29Z</time></trkpt><trkpt lat="44.33750347139767" lon="11.540285435286725"><ele>145.0</ele><time>2026-03-22T15:42:30Z</time></trkpt><trkpt lat="44.33763521703403" lon="11.540370343739433"><ele>144.66666666666669</ele><time>2026-03-22T15:42:31Z</time></trkpt><trkpt lat="44.337778797390605" lon="11.54045419178701"><ele>144.33333333333334</ele><time>2026-03-22T15:42:32Z</time></trkpt><trkpt lat="44.33792460210276" lon="11.5405302608096"><ele>144.0</ele><time>2026-03-22T15:42:33Z</time></trkpt><trkpt lat="44.33805647854897" lon="11.540602064994324"><ele>144.0</ele><time>2026-03-22T15:42:34Z</time></trkpt><trkpt lat="44.3381731974133" lon="11.54066730426761"><ele>144.0</ele><time>2026-03-22T15:42:35Z</time></trkpt><trkpt lat="44.338286167525844" lon="11.540725842484159"><ele>144.0</ele><time>2026-03-22T15:42:36Z</time></trkpt><trkpt lat="44.3384123869043" lon="11.54076221278368"><ele>144.0</ele><time>2026-03-22T15:42:37Z</time></trkpt><trkpt lat="44.33855630608183" lon="11.54075876038051"><ele>144.0</ele><time>2026-03-22T15:42:38Z</time></trkpt><trkpt lat="44.338697418047495" lon="11.540736764036525"><ele>144.0</ele><time>2026-03-22T15:42:39Z</time></trkpt><trkpt lat="44.338833684183115" lon="11.540705552932257"><ele>144.0</ele><time>2026-03-22T15:42:40Z</time></trkpt><trkpt lat="44.33896705725798" lon="11.540669004656362"><ele>144.0</ele><time>2026-03-22T15:42:41Z</time></trkpt><trkpt lat="44.339094135228976" lon="11.54063378703585"><ele>144.0</ele><time>2026-03-22T15:42:42Z</time></trkpt><trkpt lat="44.33921295409507" lon="11.540622660373252"><ele>144.0</ele><time>2026-03-22T15:42:43Z</time></trkpt><trkpt lat="44.33933665373589" lon="11.540643220247745"><ele>144.0</ele><time>2026-03-22T15:42:44Z</time></trkpt><trkpt lat="44.3394581393617" lon="11.54070324081961"><ele>144.0</ele><time>2026-03-22T15:42:45Z</time></trkpt><trkpt lat="44.3395701822599" lon="11.540819046675146"><ele>144.0</ele><time>2026-03-22T15:42:46Z</time></trkpt><trkpt lat="44.33969584377191" lon="11.540915555435513"><ele>144.0</ele><time>2026-03-22T15:42:47Z</time></trkpt><trkpt lat="44.33981753517168" lon="11.541046771435765"><ele>144.0</ele><time>2026-03-22T15:42:48Z</time></trkpt><trkpt lat="44.33994952145957" lon="11.541175611636183"><ele>142.33333333333334</ele><time>2026-03-22T15:42:49Z</time></trkpt><trkpt lat="44.34008914566342" lon="11.541302484680735"><ele>140.66666666666669</ele><time>2026-03-22T15:42:50Z</time></trkpt><trkpt lat="44.34023111230135" lon="11.541429208308566"><ele>139.0</ele><time>2026-03-22T15:42:51Z</time></trkpt><trkpt lat="44.340366648591974" lon="11.541552144875324"><ele>139.0</ele><time>2026-03-22T15:42:52Z</time></trkpt><trkpt lat="44.34050342549093" lon="11.541678856676791"><ele>139.0</ele><time>2026-03-22T15:42:53Z</time></trkpt><trkpt lat="44.34065014941699" lon="11.541813309362078"><ele>139.0</ele><time>2026-03-22T15:42:54Z</time></trkpt><trkpt lat="44.340796517763856" lon="11.541956539367872"><ele>137.33333333333334</ele><time>2026-03-22T15:42:55Z</time></trkpt><trkpt lat="44.34092762445378" lon="11.542130702726755"><ele>135.66666666666666</ele><time>2026-03-22T15:42:56Z</time></trkpt><trkpt lat="44.34108027416277" lon="11.542275961441195"><ele>134.0</ele><time>2026-03-22T15:42:57Z</time></trkpt><trkpt lat="44.341216376202354" lon="11.54244381649285"><ele>134.0</ele><time>2026-03-22T15:42:58Z</time></trkpt><trkpt lat="44.3413529944006" lon="11.542610556350839"><ele>134.0</ele><time>2026-03-22T15:42:59Z</time></trkpt><trkpt lat="44.34149461732118" lon="11.542779993071466"><ele>134.0</ele><time>2026-03-22T15:43:00Z</time></trkpt><trkpt lat="44.34163493973048" lon="11.542948699545876"><ele>134.33333333333331</ele><time>2026-03-22T15:43:01Z</time></trkpt><trkpt lat="44.34177787813402" lon="11.543117384849772"><ele>134.66666666666666</ele><time>2026-03-22T15:43:02Z</time></trkpt><trkpt lat="44.341918399682804" lon="11.543284924529347"><ele>135.0</ele><time>2026-03-22T15:43:03Z</time></trkpt><trkpt lat="44.34205100849237" lon="11.543445722591516"><ele>135.0</ele><time>2026-03-22T15:43:04Z</time></trkpt><trkpt lat="44.342175380295146" lon="11.54359797586107"><ele>135.0</ele><time>2026-03-22T15:43:05Z</time></trkpt><trkpt lat="44.342296957831444" lon="11.543745317382278"><ele>135.0</ele><time>2026-03-22T15:43:06Z</time></trkpt><trkpt lat="44.342417141402386" lon="11.543885800621908"><ele>135.0</ele><time>2026-03-22T15:43:07Z</time></trkpt><trkpt lat="44.34254560814313" lon="11.544036149688765"><ele>135.0</ele><time>2026-03-22T15:43:08Z</time></trkpt><trkpt lat="44.34267362956044" lon="11.54418908792308"><ele>135.0</ele><time>2026-03-22T15:43:09Z</time></trkpt><trkpt lat="44.3428063413704" lon="11.544343010212273"><ele>135.0</ele><time>2026-03-22T15:43:10Z</time></trkpt><trkpt lat="44.34292976521394" lon="11.544489365201262"><ele>135.0</ele><time>2026-03-22T15:43:11Z</time></trkpt><trkpt lat="44.3430501347281" lon="11.544629852291065"><ele>135.0</ele><time>2026-03-22T15:43:12Z</time></trkpt><trkpt lat="44.34315887347407" lon="11.544771728548517"><ele>131.66666666666666</ele><time>2026-03-22T15:43:13Z</time></trkpt><trkpt lat="44.34327522781774" lon="11.544896078487628"><ele>128.33333333333331</ele><time>2026-03-22T15:43:14Z</time></trkpt><trkpt lat="44.34340739596135" lon="11.545004677791832"><ele>125.0</ele><time>2026-03-22T15:43:15Z</time></trkpt><trkpt lat="44.34355777556529" lon="11.545094338893982"><ele>125.0</ele><time>2026-03-22T15:43:16Z</time></trkpt><trkpt lat="44.34369952910437" lon="11.545173877459565"><ele>125.0</ele><time>2026-03-22T15:43:17Z</time></trkpt><trkpt lat="44.34382909937592" lon="11.545250732124943"><ele>125.0</ele><time>2026-03-22T15:43:18Z</time></trkpt><trkpt lat="44.34393766436131" lon="11.545320063409916"><ele>125.0</ele><time>2026-03-22T15:43:19Z</time></trkpt><trkpt lat="44.344021482432154" lon="11.545385925876706"><ele>125.5</ele><time>2026-03-22T15:43:20Z</time></trkpt><trkpt lat="44.34409779526051" lon="11.545481386828618"><ele>126.0</ele><time>2026-03-22T15:43:21Z</time></trkpt><trkpt lat="44.34416782870872" lon="11.54562572327702"><ele>126.5</ele><time>2026-03-22T15:43:22Z</time></trkpt><trkpt lat="44.344210701844105" lon="11.545808810112431"><ele>127.0</ele><time>2026-03-22T15:43:23Z</time></trkpt><trkpt lat="44.34420773946572" lon="11.546003061899441"><ele>127.0</ele><time>2026-03-22T15:43:24Z</time></trkpt><trkpt lat="44.344152089590686" lon="11.5461913621166"><ele>127.0</ele><time>2026-03-22T15:43:25Z</time></trkpt><trkpt lat="44.34406247333699" lon="11.546354272648898"><ele>127.0</ele><time>2026-03-22T15:43:26Z</time></trkpt><trkpt lat="44.344004087905944" lon="11.546526214724983"><ele>127.0</ele><time>2026-03-22T15:43:27Z</time></trkpt><trkpt lat="44.343949088808564" lon="11.546659553558609"><ele>127.0</ele><time>2026-03-22T15:43:28Z</time></trkpt><trkpt lat="44.34391443721614" lon="11.546805373891738"><ele>127.0</ele><time>2026-03-22T15:43:29Z</time></trkpt><trkpt lat="44.3438967018017" lon="11.546981812431232"><ele>127.0</ele><time>2026-03-22T15:43:30Z</time></trkpt><trkpt lat="44.343902976740644" lon="11.547182405515226"><ele>127.0</ele><time>2026-03-22T15:43:31Z</time></trkpt><trkpt lat="44.34391495164733" lon="11.547396851991124"><ele>124.33333333333334</ele><time>2026-03-22T15:43:32Z</time></trkpt><trkpt lat="44.343926262399485" lon="11.547603800356734"><ele>121.66666666666666</ele><time>2026-03-22T15:43:33Z</time></trkpt><trkpt lat="44.34392898461953" lon="11.547821697568391"><ele>119.0</ele><time>2026-03-22T15:43:34Z</time></trkpt><trkpt lat="44.343935724895175" lon="11.548052967939148"><ele>119.0</ele><time>2026-03-22T15:43:35Z</time></trkpt><trkpt lat="44.34394458477461" lon="11.54828390554608"><ele>119.0</ele><time>2026-03-22T15:43:36Z</time></trkpt><trkpt lat="44.3439477845446" lon="11.548515276826109"><ele>119.0</ele><time>2026-03-22T15:43:37Z</time></trkpt><trkpt lat="44.343932082568465" lon="11.54874825539684"><ele>120.33333333333333</ele><time>2026-03-22T15:43:38Z</time></trkpt><trkpt lat="44.34389310038406" lon="11.548980619814014"><ele>121.66666666666666</ele><time>2026-03-22T15:43:39Z</time></trkpt><trkpt lat="44.34384494968414" lon="11.549196668194721"><ele>123.0</ele><time>2026-03-22T15:43:40Z</time></trkpt><trkpt lat="44.343806257664404" lon="11.549397526982892"><ele>120.75</ele><time>2026-03-22T15:43:41Z</time></trkpt><trkpt lat="44.34377633896997" lon="11.549592367956242"><ele>118.5</ele><time>2026-03-22T15:43:42Z</time></trkpt><trkpt lat="44.34374882609344" lon="11.549786875841098"><ele>116.25</ele><time>2026-03-22T15:43:43Z</time></trkpt><trkpt lat="44.34372364196079" lon="11.54999072183993"><ele>114.0</ele><time>2026-03-22T15:43:44Z</time></trkpt><trkpt lat="44.343701629815804" lon="11.55020681268921"><ele>113.0</ele><time>2026-03-22T15:43:45Z</time></trkpt><trkpt lat="44.34368439451916" lon="11.550429922027323"><ele>112.0</ele><time>2026-03-22T15:43:46Z</time></trkpt><trkpt lat="44.34367023666563" lon="11.550658177132632"><ele>111.0</ele><time>2026-03-22T15:43:47Z</time></trkpt><trkpt lat="44.34366170528189" lon="11.550894319189084"><ele>111.0</ele><time>2026-03-22T15:43:48Z</time></trkpt><trkpt lat="44.34366266004503" lon="11.551105518865862"><ele>111.0</ele><time>2026-03-22T15:43:49Z</time></trkpt><trkpt lat="44.34366406356464" lon="11.551302653962027"><ele>111.0</ele><time>2026-03-22T15:43:50Z</time></trkpt><trkpt lat="44.343668805461746" lon="11.551490022942227"><ele>111.0</ele><time>2026-03-22T15:43:51Z</time></trkpt><trkpt lat="44.34367681110096" lon="11.55167724809538"><ele>111.25</ele><time>2026-03-22T15:43:52Z</time></trkpt><trkpt lat="44.34368796543419" lon="11.551863674460504"><ele>111.5</ele><time>2026-03-22T15:43:53Z</time></trkpt><trkpt lat="44.34370353774397" lon="11.552050205843823"><ele>111.75</ele><time>2026-03-22T15:43:54Z</time></trkpt><trkpt lat="44.34372674040485" lon="11.552238889477934"><ele>112.0</ele><time>2026-03-22T15:43:55Z</time></trkpt><trkpt lat="44.34376602202057" lon="11.552430029333895"><ele>111.0</ele><time>2026-03-22T15:43:56Z</time></trkpt><trkpt lat="44.343832334361885" lon="11.552615557893274"><ele>110.0</ele><time>2026-03-22T15:43:57Z</time></trkpt><trkpt lat="44.34393085985588" lon="11.552791567385942"><ele>109.0</ele><time>2026-03-22T15:43:58Z</time></trkpt><trkpt lat="44.34404719293512" lon="11.55296151885681"><ele>108.66666666666667</ele><time>2026-03-22T15:43:59Z</time></trkpt><trkpt lat="44.34416885770658" lon="11.553132629741645"><ele>108.33333333333334</ele><time>2026-03-22T15:44:00Z</time></trkpt><trkpt lat="44.344297282403936" lon="11.55331060604133"><ele>108.0</ele><time>2026-03-22T15:44:01Z</time></trkpt><trkpt lat="44.34443264509344" lon="11.553493167881273"><ele>108.0</ele><time>2026-03-22T15:44:02Z</time></trkpt><trkpt lat="44.344568832017096" lon="11.553681345464263"><ele>108.0</ele><time>2026-03-22T15:44:03Z</time></trkpt><trkpt lat="44.34469283652858" lon="11.553880398227957"><ele>108.0</ele><time>2026-03-22T15:44:04Z</time></trkpt><trkpt lat="44.344825876546466" lon="11.554062420186945"><ele>107.66666666666666</ele><time>2026-03-22T15:44:05Z</time></trkpt><trkpt lat="44.34495970531776" lon="11.55424540643842"><ele>107.33333333333333</ele><time>2026-03-22T15:44:06Z</time></trkpt><trkpt lat="44.34509399657095" lon="11.554398853005747"><ele>107.0</ele><time>2026-03-22T15:44:07Z</time></trkpt><trkpt lat="44.345211816414675" lon="11.554561211192715"><ele>106.0</ele><time>2026-03-22T15:44:08Z</time></trkpt><trkpt lat="44.34532931336662" lon="11.554719137957603"><ele>105.0</ele><time>2026-03-22T15:44:09Z</time></trkpt><trkpt lat="44.345448747244696" lon="11.554878534818746"><ele>104.0</ele><time>2026-03-22T15:44:10Z</time></trkpt><trkpt lat="44.345567983828445" lon="11.555035488573477"><ele>104.0</ele><time>2026-03-22T15:44:11Z</time></trkpt><trkpt lat="44.34568624362161" lon="11.555190909041967"><ele>104.0</ele><time>2026-03-22T15:44:12Z</time></trkpt><trkpt lat="44.34580401771942" lon="11.555350450426134"><ele>104.0</ele><time>2026-03-22T15:44:13Z</time></trkpt><trkpt lat="44.345922003584235" lon="11.555508277406028"><ele>104.0</ele><time>2026-03-22T15:44:14Z</time></trkpt><trkpt lat="44.346043148502574" lon="11.555670636460773"><ele>104.0</ele><time>2026-03-22T15:44:15Z</time></trkpt><trkpt lat="44.346161782906" lon="11.555837677180412"><ele>104.0</ele><time>2026-03-22T15:44:16Z</time></trkpt><trkpt lat="44.34628187388575" lon="11.556004772430782"><ele>104.0</ele><time>2026-03-22T15:44:17Z</time></trkpt><trkpt lat="44.346401834946555" lon="11.556169375747428"><ele>104.0</ele><time>2026-03-22T15:44:18Z</time></trkpt><trkpt lat="44.34652005401183" lon="11.55633212489831"><ele>104.0</ele><time>2026-03-22T15:44:19Z</time></trkpt><trkpt lat="44.34663732009879" lon="11.556491114613126"><ele>104.0</ele><time>2026-03-22T15:44:20Z</time></trkpt><trkpt lat="44.34674865694402" lon="11.55663720966855"><ele>104.0</ele><time>2026-03-22T15:44:21Z</time></trkpt><trkpt lat="44.34686326149973" lon="11.55679142551478"><ele>104.0</ele><time>2026-03-22T15:44:22Z</time></trkpt><trkpt lat="44.34701498256174" lon="11.556874010729588"><ele>104.0</ele><time>2026-03-22T15:44:23Z</time></trkpt><trkpt lat="44.347167121633184" lon="11.556942941715059"><ele>104.0</ele><time>2026-03-22T15:44:24Z</time></trkpt><trkpt lat="44.34732618576072" lon="11.556992166579432"><ele>104.0</ele><time>2026-03-22T15:44:25Z</time></trkpt><trkpt lat="44.3474855009734" lon="11.557044675145706"><ele>103.66666666666666</ele><time>2026-03-22T15:44:26Z</time></trkpt><trkpt lat="44.34764221176748" lon="11.557105645333085"><ele>103.33333333333334</ele><time>2026-03-22T15:44:27Z</time></trkpt><trkpt lat="44.34780385944723" lon="11.557166640862745"><ele>103.0</ele><time>2026-03-22T15:44:28Z</time></trkpt><trkpt lat="44.34796577300716" lon="11.557222514438225"><ele>102.66666666666667</ele><time>2026-03-22T15:44:29Z</time></trkpt><trkpt lat="44.348126491419926" lon="11.55729730122613"><ele>102.33333333333334</ele><time>2026-03-22T15:44:30Z</time></trkpt><trkpt lat="44.34827828917082" lon="11.55740098059422"><ele>102.0</ele><time>2026-03-22T15:44:31Z</time></trkpt><trkpt lat="44.34842355896329" lon="11.557511987752031"><ele>102.0</ele><time>2026-03-22T15:44:32Z</time></trkpt><trkpt lat="44.34856303373029" lon="11.557648656201494"><ele>102.0</ele><time>2026-03-22T15:44:33Z</time></trkpt><trkpt lat="44.34871706496506" lon="11.557752246059499"><ele>102.0</ele><time>2026-03-22T15:44:34Z</time></trkpt><trkpt lat="44.34886900139228" lon="11.557873118504874"><ele>101.66666666666666</ele><time>2026-03-22T15:44:35Z</time></trkpt><trkpt lat="44.349014872380536" lon="11.55798963424269"><ele>101.33333333333333</ele><time>2026-03-22T15:44:36Z</time></trkpt><trkpt lat="44.34915873602523" lon="11.55810126384553"><ele>101.0</ele><time>2026-03-22T15:44:37Z</time></trkpt><trkpt lat="44.34930011214071" lon="11.558215212726402"><ele>101.0</ele><time>2026-03-22T15:44:38Z</time></trkpt><trkpt lat="44.34944185257095" lon="11.558331782108295"><ele>101.0</ele><time>2026-03-22T15:44:39Z</time></trkpt><trkpt lat="44.349582158195176" lon="11.558441752590692"><ele>101.0</ele><time>2026-03-22T15:44:40Z</time></trkpt><trkpt lat="44.349712991065175" lon="11.558548849083639"><ele>101.25</ele><time>2026-03-22T15:44:41Z</time></trkpt><trkpt lat="44.349839453762335" lon="11.558648268826909"><ele>101.5</ele><time>2026-03-22T15:44:42Z</time></trkpt><trkpt lat="44.349956423420174" lon="11.558740488033392"><ele>101.75</ele><time>2026-03-22T15:44:43Z</time></trkpt><trkpt lat="44.350073765698674" lon="11.558832088487836"><ele>102.0</ele><time>2026-03-22T15:44:44Z</time></trkpt><trkpt lat="44.350192566433506" lon="11.55892105330879"><ele>101.5</ele><time>2026-03-22T15:44:45Z</time></trkpt><trkpt lat="44.350306978194915" lon="11.559013453743885"><ele>101.0</ele><time>2026-03-22T15:44:46Z</time></trkpt><trkpt lat="44.35042582282135" lon="11.559107140118995"><ele>100.5</ele><time>2026-03-22T15:44:47Z</time></trkpt><trkpt lat="44.350542062702125" lon="11.559200271026013"><ele>100.0</ele><time>2026-03-22T15:44:48Z</time></trkpt><trkpt lat="44.3506501680014" lon="11.559286389048108"><ele>100.0</ele><time>2026-03-22T15:44:49Z</time></trkpt><trkpt lat="44.35075401835705" lon="11.559366372455823"><ele>100.0</ele><time>2026-03-22T15:44:50Z</time></trkpt><trkpt lat="44.35085818487908" lon="11.559449686596158"><ele>100.0</ele><time>2026-03-22T15:44:51Z</time></trkpt><trkpt lat="44.350966439432604" lon="11.55953338017385"><ele>100.0</ele><time>2026-03-22T15:44:52Z</time></trkpt><trkpt lat="44.35107564504562" lon="11.559615964208701"><ele>100.0</ele><time>2026-03-22T15:44:53Z</time></trkpt><trkpt lat="44.35118403986127" lon="11.559702454819927"><ele>100.0</ele><time>2026-03-22T15:44:54Z</time></trkpt><trkpt lat="44.35129433505588" lon="11.559791244344003"><ele>100.0</ele><time>2026-03-22T15:44:55Z</time></trkpt><trkpt lat="44.3514046576849" lon="11.559879354137806"><ele>100.0</ele><time>2026-03-22T15:44:56Z</time></trkpt><trkpt lat="44.351517107807524" lon="11.559967550730104"><ele>100.5</ele><time>2026-03-22T15:44:57Z</time></trkpt><trkpt lat="44.351626200568084" lon="11.560055922841366"><ele>101.0</ele><time>2026-03-22T15:44:58Z</time></trkpt><trkpt lat="44.35173859574882" lon="11.56014437810075"><ele>101.5</ele><time>2026-03-22T15:44:59Z</time></trkpt><trkpt lat="44.35184669289793" lon="11.560237101447346"><ele>102.0</ele><time>2026-03-22T15:45:00Z</time></trkpt><trkpt lat="44.35194833907082" lon="11.560343138152716"><ele>101.8</ele><time>2026-03-22T15:45:01Z</time></trkpt><trkpt lat="44.352027987309604" lon="11.560484340909092"><ele>101.6</ele><time>2026-03-22T15:45:02Z</time></trkpt><trkpt lat="44.35210049974681" lon="11.56061145712737"><ele>101.39999999999999</ele><time>2026-03-22T15:45:03Z</time></trkpt><trkpt lat="44.352171871155925" lon="11.5607103871883"><ele>101.19999999999999</ele><time>2026-03-22T15:45:04Z</time></trkpt><trkpt lat="44.35221645902041" lon="11.560811218641724"><ele>101.0</ele><time>2026-03-22T15:45:05.001Z</time></trkpt><trkpt lat="44.352270595816336" lon="11.560916392717823"><ele>101.75</ele><time>2026-03-22T15:45:06.001Z</time></trkpt><trkpt lat="44.35234050939211" lon="11.561038265535467"><ele>102.5</ele><time>2026-03-22T15:45:07.001Z</time></trkpt><trkpt lat="44.352413997703394" lon="11.561170783781336"><ele>103.25</ele><time>2026-03-22T15:45:08.001Z</time></trkpt><trkpt lat="44.35249269384192" lon="11.561318572989855"><ele>104.0</ele><time>2026-03-22T15:45:09.001Z</time></trkpt><trkpt lat="44.352570493226835" lon="11.561469558922218"><ele>104.0</ele><time>2026-03-22T15:45:10.001Z</time></trkpt><trkpt lat="44.35265082576621" lon="11.56161722048967"><ele>104.0</ele><time>2026-03-22T15:45:11.001Z</time></trkpt><trkpt lat="44.35273123385576" lon="11.561764551712367"><ele>104.0</ele><time>2026-03-22T15:45:12.001Z</time></trkpt><trkpt lat="44.35280662968965" lon="11.561911256734783"><ele>104.0</ele><time>2026-03-22T15:45:13.001Z</time></trkpt><trkpt lat="44.352876368539334" lon="11.562039981638359"><ele>104.16666666666666</ele><time>2026-03-22T15:45:14.001Z</time></trkpt><trkpt lat="44.35294021986743" lon="11.562148044712034"><ele>104.33333333333333</ele><time>2026-03-22T15:45:15.001Z</time></trkpt><trkpt lat="44.35299557899636" lon="11.562243076544961"><ele>104.5</ele><time>2026-03-22T15:45:16.001Z</time></trkpt><trkpt lat="44.35304496889548" lon="11.562331232535279"><ele>104.66666666666666</ele><time>2026-03-22T15:45:17.001Z</time></trkpt><trkpt lat="44.35308589804649" lon="11.562406126754759"><ele>104.83333333333333</ele><time>2026-03-22T15:45:18.001Z</time></trkpt><trkpt lat="44.35313465416223" lon="11.562490156354505"><ele>105.0</ele><time>2026-03-22T15:45:19.001Z</time></trkpt><trkpt lat="44.35318849139445" lon="11.562579898939013"><ele>105.0</ele><time>2026-03-22T15:45:20.001Z</time></trkpt><trkpt lat="44.353252426953645" lon="11.562689373726867"><ele>105.0</ele><time>2026-03-22T15:45:21.001Z</time></trkpt><trkpt lat="44.35331828701343" lon="11.562815603637937"><ele>105.0</ele><time>2026-03-22T15:45:22.001Z</time></trkpt><trkpt lat="44.35338465208709" lon="11.562941348810032"><ele>105.0</ele><time>2026-03-22T15:45:23.001Z</time></trkpt><trkpt lat="44.35344955072704" lon="11.563061992867937"><ele>105.0</ele><time>2026-03-22T15:45:24.001Z</time></trkpt><trkpt lat="44.353520784861686" lon="11.563181939557536"><ele>104.4</ele><time>2026-03-22T15:45:25.001Z</time></trkpt><trkpt lat="44.35358870429269" lon="11.56329656572313"><ele>103.8</ele><time>2026-03-22T15:45:26.001Z</time></trkpt><trkpt lat="44.35366890155263" lon="11.563401252586665"><ele>103.19999999999999</ele><time>2026-03-22T15:45:27.001Z</time></trkpt><trkpt lat="44.35375876030192" lon="11.563493524518197"><ele>102.6</ele><time>2026-03-22T15:45:28.001Z</time></trkpt><trkpt lat="44.35386909389922" lon="11.56356357964814"><ele>102.0</ele><time>2026-03-22T15:45:29.001Z</time></trkpt><trkpt lat="44.35399179490895" lon="11.56360586531118"><ele>101.0</ele><time>2026-03-22T15:45:30.001Z</time></trkpt><trkpt lat="44.35411179178151" lon="11.563627161791402"><ele>100.0</ele><time>2026-03-22T15:45:31.001Z</time></trkpt><trkpt lat="44.35423022721247" lon="11.563643424647564"><ele>99.0</ele><time>2026-03-22T15:45:32.001Z</time></trkpt><trkpt lat="44.354349744972666" lon="11.563668003553538"><ele>98.0</ele><time>2026-03-22T15:45:33.001Z</time></trkpt><trkpt lat="44.354467454696994" lon="11.563696191077192"><ele>97.75</ele><time>2026-03-22T15:45:34.001Z</time></trkpt><trkpt lat="44.35458074456094" lon="11.563739367259522"><ele>97.5</ele><time>2026-03-22T15:45:35.001Z</time></trkpt><trkpt lat="44.354699990567106" lon="11.5637685447992"><ele>97.25</ele><time>2026-03-22T15:45:36.001Z</time></trkpt><trkpt lat="44.35482806662987" lon="11.563781597854206"><ele>97.0</ele><time>2026-03-22T15:45:37Z</time></trkpt><trkpt lat="44.354963415936" lon="11.563799847586925"><ele>97.0</ele><time>2026-03-22T15:45:38Z</time></trkpt><trkpt lat="44.35510582525215" lon="11.563815140090366"><ele>97.0</ele><time>2026-03-22T15:45:39Z</time></trkpt><trkpt lat="44.355249726272426" lon="11.56385139844451"><ele>97.0</ele><time>2026-03-22T15:45:40Z</time></trkpt><trkpt lat="44.355383342971535" lon="11.563928164296323"><ele>97.0</ele><time>2026-03-22T15:45:41Z</time></trkpt><trkpt lat="44.35549673113996" lon="11.564028858674751"><ele>96.75</ele><time>2026-03-22T15:45:42Z</time></trkpt><trkpt lat="44.355603650663795" lon="11.564150477441409"><ele>96.5</ele><time>2026-03-22T15:45:43Z</time></trkpt><trkpt lat="44.35571273144217" lon="11.564270503576386"><ele>96.25</ele><time>2026-03-22T15:45:44Z</time></trkpt><trkpt lat="44.355809620056576" lon="11.56442527922261"><ele>96.0</ele><time>2026-03-22T15:45:45Z</time></trkpt><trkpt lat="44.35590644593015" lon="11.564583689800648"><ele>96.0</ele><time>2026-03-22T15:45:46Z</time></trkpt><trkpt lat="44.356009842644994" lon="11.564751102782894"><ele>96.0</ele><time>2026-03-22T15:45:47Z</time></trkpt><trkpt lat="44.35612758793579" lon="11.564928290430258"><ele>96.0</ele><time>2026-03-22T15:45:48Z</time></trkpt><trkpt lat="44.35626122441476" lon="11.56510600229698"><ele>96.33333333333334</ele><time>2026-03-22T15:45:49Z</time></trkpt><trkpt lat="44.356386225241486" lon="11.565262377808702"><ele>96.66666666666667</ele><time>2026-03-22T15:45:50Z</time></trkpt><trkpt lat="44.35651222358294" lon="11.565387500572662"><ele>97.0</ele><time>2026-03-22T15:45:51Z</time></trkpt><trkpt lat="44.356623886194555" lon="11.565514633554788"><ele>96.5</ele><time>2026-03-22T15:45:52Z</time></trkpt><trkpt lat="44.35672746440741" lon="11.565634910550942"><ele>96.0</ele><time>2026-03-22T15:45:53Z</time></trkpt><trkpt lat="44.356830367982084" lon="11.565750502466189"><ele>95.5</ele><time>2026-03-22T15:45:54Z</time></trkpt><trkpt lat="44.35693377762102" lon="11.565863496525695"><ele>95.0</ele><time>2026-03-22T15:45:55Z</time></trkpt><trkpt lat="44.357038320012315" lon="11.565981125639277"><ele>95.0</ele><time>2026-03-22T15:45:56Z</time></trkpt><trkpt lat="44.35713895211495" lon="11.566100802954873"><ele>95.0</ele><time>2026-03-22T15:45:57Z</time></trkpt><trkpt lat="44.35724041656973" lon="11.56622361537922"><ele>95.0</ele><time>2026-03-22T15:45:58Z</time></trkpt><trkpt lat="44.357341961550134" lon="11.566343988481645"><ele>95.0</ele><time>2026-03-22T15:45:59Z</time></trkpt><trkpt lat="44.357429742603195" lon="11.566448556002477"><ele>95.5</ele><time>2026-03-22T15:46:00Z</time></trkpt><trkpt lat="44.35752120341072" lon="11.566554382758431"><ele>96.0</ele><time>2026-03-22T15:46:01Z</time></trkpt><trkpt lat="44.35761292705568" lon="11.566660457356527"><ele>96.5</ele><time>2026-03-22T15:46:02Z</time></trkpt><trkpt lat="44.35771603596769" lon="11.566759250812815"><ele>97.0</ele><time>2026-03-22T15:46:03Z</time></trkpt><trkpt lat="44.357831168697345" lon="11.566840240895978"><ele>97.0</ele><time>2026-03-22T15:46:04Z</time></trkpt><trkpt lat="44.35796647583414" lon="11.566891053864774"><ele>97.0</ele><time>2026-03-22T15:46:05Z</time></trkpt><trkpt lat="44.358112658632365" lon="11.566919499707751"><ele>97.0</ele><time>2026-03-22T15:46:06Z</time></trkpt><trkpt lat="44.35826249820059" lon="11.566927463006177"><ele>97.0</ele><time>2026-03-22T15:46:07Z</time></trkpt><trkpt lat="44.35841278183913" lon="11.566918944653516"><ele>96.66666666666667</ele><time>2026-03-22T15:46:08Z</time></trkpt><trkpt lat="44.358561993539006" lon="11.566911028078675"><ele>96.33333333333334</ele><time>2026-03-22T15:46:09Z</time></trkpt><trkpt lat="44.358716814599354" lon="11.566907169957808"><ele>96.0</ele><time>2026-03-22T15:46:10Z</time></trkpt><trkpt lat="44.35887668127992" lon="11.566901279641357"><ele>97.0</ele><time>2026-03-22T15:46:11Z</time></trkpt><trkpt lat="44.35904282100245" lon="11.566902958628765"><ele>98.0</ele><time>2026-03-22T15:46:12Z</time></trkpt><trkpt lat="44.35920888767209" lon="11.566927567246116"><ele>99.0</ele><time>2026-03-22T15:46:13Z</time></trkpt><trkpt lat="44.359375311383296" lon="11.566966884142401"><ele>99.0</ele><time>2026-03-22T15:46:14Z</time></trkpt><trkpt lat="44.35953394689787" lon="11.56701674073628"><ele>99.0</ele><time>2026-03-22T15:46:15Z</time></trkpt><trkpt lat="44.35967347396767" lon="11.567068262963435"><ele>99.0</ele><time>2026-03-22T15:46:16Z</time></trkpt><trkpt lat="44.35979613710441" lon="11.567115631043807"><ele>99.0</ele><time>2026-03-22T15:46:17Z</time></trkpt><trkpt lat="44.35991264927016" lon="11.567154959137744"><ele>98.6</ele><time>2026-03-22T15:46:18Z</time></trkpt><trkpt lat="44.36001529710388" lon="11.567189215767543"><ele>98.2</ele><time>2026-03-22T15:46:19Z</time></trkpt><trkpt lat="44.3601200526605" lon="11.567221166227421"><ele>97.8</ele><time>2026-03-22T15:46:20Z</time></trkpt><trkpt lat="44.36023195249943" lon="11.56726549774863"><ele>97.39999999999999</ele><time>2026-03-22T15:46:21Z</time></trkpt><trkpt lat="44.360339564829715" lon="11.56733346102387"><ele>97.0</ele><time>2026-03-22T15:46:22Z</time></trkpt><trkpt lat="44.36044411798435" lon="11.567427574302293"><ele>98.0</ele><time>2026-03-22T15:46:23Z</time></trkpt><trkpt lat="44.360546530694336" lon="11.567541821912034"><ele>99.0</ele><time>2026-03-22T15:46:24Z</time></trkpt><trkpt lat="44.36063929007229" lon="11.567679724348457"><ele>100.0</ele><time>2026-03-22T15:46:25Z</time></trkpt><trkpt lat="44.360733360579445" lon="11.567830615451554"><ele>101.0</ele><time>2026-03-22T15:46:26Z</time></trkpt><trkpt lat="44.36083004459504" lon="11.567987052057669"><ele>101.33333333333333</ele><time>2026-03-22T15:46:27Z</time></trkpt><trkpt lat="44.360933039341695" lon="11.568146585122339"><ele>101.66666666666666</ele><time>2026-03-22T15:46:28Z</time></trkpt><trkpt lat="44.361038688028906" lon="11.568309728039704"><ele>102.0</ele><time>2026-03-22T15:46:29Z</time></trkpt><trkpt lat="44.36113755737886" lon="11.568467887866943"><ele>102.0</ele><time>2026-03-22T15:46:30Z</time></trkpt><trkpt lat="44.36122169487869" lon="11.568627911885587"><ele>102.0</ele><time>2026-03-22T15:46:31Z</time></trkpt><trkpt lat="44.36130003799909" lon="11.568801965425992"><ele>102.0</ele><time>2026-03-22T15:46:32Z</time></trkpt><trkpt lat="44.36136718423015" lon="11.568989441278694"><ele>102.0</ele><time>2026-03-22T15:46:33Z</time></trkpt><trkpt lat="44.36141367145962" lon="11.569173786235565"><ele>102.75</ele><time>2026-03-22T15:46:34Z</time></trkpt><trkpt lat="44.36145394278131" lon="11.569347139895521"><ele>103.5</ele><time>2026-03-22T15:46:35Z</time></trkpt><trkpt lat="44.36149523689898" lon="11.569510075025942"><ele>104.25</ele><time>2026-03-22T15:46:36Z</time></trkpt><trkpt lat="44.361533327283446" lon="11.569654393727347"><ele>105.0</ele><time>2026-03-22T15:46:37Z</time></trkpt><trkpt lat="44.36157859673352" lon="11.569773587059842"><ele>105.0</ele><time>2026-03-22T15:46:38Z</time></trkpt><trkpt lat="44.361642949720675" lon="11.569874519386152"><ele>105.0</ele><time>2026-03-22T15:46:39Z</time></trkpt><trkpt lat="44.361733454464144" lon="11.569963483688575"><ele>105.0</ele><time>2026-03-22T15:46:40Z</time></trkpt><trkpt lat="44.36184364804409" lon="11.570038414705275"><ele>105.0</ele><time>2026-03-22T15:46:41Z</time></trkpt><trkpt lat="44.361959932218156" lon="11.570108498790656"><ele>105.0</ele><time>2026-03-22T15:46:42Z</time></trkpt><trkpt lat="44.362081828138145" lon="11.570188863880004"><ele>105.0</ele><time>2026-03-22T15:46:43Z</time></trkpt><trkpt lat="44.36220310364307" lon="11.570279316452174"><ele>105.0</ele><time>2026-03-22T15:46:44Z</time></trkpt><trkpt lat="44.36230604771005" lon="11.570400739389044"><ele>105.0</ele><time>2026-03-22T15:46:45Z</time></trkpt><trkpt lat="44.36241046103477" lon="11.570494781080255"><ele>105.5</ele><time>2026-03-22T15:46:46Z</time></trkpt><trkpt lat="44.362494676638555" lon="11.57061335106615"><ele>106.0</ele><time>2026-03-22T15:46:47Z</time></trkpt><trkpt lat="44.36256137904199" lon="11.570769680362858"><ele>106.5</ele><time>2026-03-22T15:46:48Z</time></trkpt><trkpt lat="44.36262796308201" lon="11.570941718814701"><ele>107.0</ele><time>2026-03-22T15:46:49Z</time></trkpt><trkpt lat="44.36269981497471" lon="11.571125115900351"><ele>105.0</ele><time>2026-03-22T15:46:50Z</time></trkpt><trkpt lat="44.36275026327727" lon="11.571305527965745"><ele>103.0</ele><time>2026-03-22T15:46:51Z</time></trkpt><trkpt lat="44.36279742672582" lon="11.571462898901189"><ele>101.0</ele><time>2026-03-22T15:46:52Z</time></trkpt><trkpt lat="44.36284451175731" lon="11.571603828665413"><ele>99.0</ele><time>2026-03-22T15:46:53Z</time></trkpt><trkpt lat="44.36289051360343" lon="11.571744956872767"><ele>99.0</ele><time>2026-03-22T15:46:54Z</time></trkpt><trkpt lat="44.362939079113566" lon="11.571891769358103"><ele>99.0</ele><time>2026-03-22T15:46:55Z</time></trkpt><trkpt lat="44.36298694208483" lon="11.572042327389534"><ele>99.0</ele><time>2026-03-22T15:46:56Z</time></trkpt><trkpt lat="44.36303220180606" lon="11.572199251753494"><ele>99.0</ele><time>2026-03-22T15:46:57Z</time></trkpt><trkpt lat="44.36308465936013" lon="11.572353055408401"><ele>99.75</ele><time>2026-03-22T15:46:58Z</time></trkpt><trkpt lat="44.363130479158386" lon="11.572511767068594"><ele>100.5</ele><time>2026-03-22T15:46:59Z</time></trkpt><trkpt lat="44.36317916590166" lon="11.57266505344471"><ele>101.25</ele><time>2026-03-22T15:47:00Z</time></trkpt><trkpt lat="44.36322355875466" lon="11.57281531504852"><ele>102.0</ele><time>2026-03-22T15:47:01Z</time></trkpt><trkpt lat="44.363272694543426" lon="11.572958144733644"><ele>102.0</ele><time>2026-03-22T15:47:02Z</time></trkpt><trkpt lat="44.36333583375305" lon="11.573080638092446"><ele>102.0</ele><time>2026-03-22T15:47:03Z</time></trkpt><trkpt lat="44.36342346740678" lon="11.573188624534431"><ele>102.0</ele><time>2026-03-22T15:47:04Z</time></trkpt><trkpt lat="44.36353666423446" lon="11.573263182188546"><ele>102.0</ele><time>2026-03-22T15:47:05Z</time></trkpt><trkpt lat="44.36366731450078" lon="11.573305330847269"><ele>102.0</ele><time>2026-03-22T15:47:06Z</time></trkpt><trkpt lat="44.36380868650848" lon="11.573307329193037"><ele>102.0</ele><time>2026-03-22T15:47:07Z</time></trkpt><trkpt lat="44.36395156273524" lon="11.573299871536497"><ele>102.0</ele><time>2026-03-22T15:47:08Z</time></trkpt><trkpt lat="44.36409264892196" lon="11.573296389314804"><ele>102.0</ele><time>2026-03-22T15:47:09Z</time></trkpt><trkpt lat="44.36423623520991" lon="11.57330404437318"><ele>104.0</ele><time>2026-03-22T15:47:10Z</time></trkpt><trkpt lat="44.36438672389232" lon="11.573321931652195"><ele>106.0</ele><time>2026-03-22T15:47:11Z</time></trkpt><trkpt lat="44.36453937632689" lon="11.573357387554053"><ele>108.0</ele><time>2026-03-22T15:47:12Z</time></trkpt><trkpt lat="44.36469216889907" lon="11.573395078631007"><ele>107.66666666666666</ele><time>2026-03-22T15:47:13Z</time></trkpt><trkpt lat="44.364849152538774" lon="11.573423958156141"><ele>107.33333333333333</ele><time>2026-03-22T15:47:14Z</time></trkpt><trkpt lat="44.36500939545101" lon="11.573446007549842"><ele>107.0</ele><time>2026-03-22T15:47:15Z</time></trkpt><trkpt lat="44.36517186888119" lon="11.573467840311066"><ele>107.0</ele><time>2026-03-22T15:47:16Z</time></trkpt><trkpt lat="44.36532728321227" lon="11.573490546061322"><ele>107.0</ele><time>2026-03-22T15:47:17Z</time></trkpt><trkpt lat="44.36547392592175" lon="11.573519103856473"><ele>107.0</ele><time>2026-03-22T15:47:18.001Z</time></trkpt><trkpt lat="44.36561337140975" lon="11.573544325026807"><ele>107.0</ele><time>2026-03-22T15:47:19.001Z</time></trkpt><trkpt lat="44.365752978622254" lon="11.573556206813237"><ele>106.5</ele><time>2026-03-22T15:47:20.001Z</time></trkpt><trkpt lat="44.36589251511301" lon="11.573572408622143"><ele>106.0</ele><time>2026-03-22T15:47:21.001Z</time></trkpt><trkpt lat="44.36602695962315" lon="11.573623476011743"><ele>105.5</ele><time>2026-03-22T15:47:22.001Z</time></trkpt><trkpt lat="44.366152667999074" lon="11.573716359093183"><ele>105.0</ele><time>2026-03-22T15:47:23.001Z</time></trkpt><trkpt lat="44.36627261991721" lon="11.573830410921705"><ele>104.0</ele><time>2026-03-22T15:47:24.001Z</time></trkpt><trkpt lat="44.36638751070801" lon="11.573946540174076"><ele>103.0</ele><time>2026-03-22T15:47:25.001Z</time></trkpt><trkpt lat="44.36650323151292" lon="11.574069125294336"><ele>102.0</ele><time>2026-03-22T15:47:26.001Z</time></trkpt><trkpt lat="44.3666174910463" lon="11.574196636431994"><ele>101.0</ele><time>2026-03-22T15:47:27.001Z</time></trkpt><trkpt lat="44.36673770238208" lon="11.574326238468489"><ele>101.0</ele><time>2026-03-22T15:47:28.001Z</time></trkpt><trkpt lat="44.36686310010893" lon="11.574460081395785"><ele>101.0</ele><time>2026-03-22T15:47:29.001Z</time></trkpt><trkpt lat="44.366981043001125" lon="11.574601212600696"><ele>101.0</ele><time>2026-03-22T15:47:30.001Z</time></trkpt><trkpt lat="44.367092664954065" lon="11.574740347624418"><ele>100.25</ele><time>2026-03-22T15:47:31.001Z</time></trkpt><trkpt lat="44.367214849783295" lon="11.574855795338909"><ele>99.5</ele><time>2026-03-22T15:47:32.001Z</time></trkpt><trkpt lat="44.367350026354764" lon="11.57494529418911"><ele>98.75</ele><time>2026-03-22T15:47:33.001Z</time></trkpt><trkpt lat="44.36749432961892" lon="11.575009954834576"><ele>98.0</ele><time>2026-03-22T15:47:34Z</time></trkpt><trkpt lat="44.367634428271664" lon="11.575047208454253"><ele>98.0</ele><time>2026-03-22T15:47:35Z</time></trkpt><trkpt lat="44.36776729891885" lon="11.575072647450197"><ele>98.0</ele><time>2026-03-22T15:47:36Z</time></trkpt><trkpt lat="44.36790503872274" lon="11.575107446922509"><ele>98.0</ele><time>2026-03-22T15:47:37Z</time></trkpt><trkpt lat="44.36804358157392" lon="11.575169440219305"><ele>98.0</ele><time>2026-03-22T15:47:38Z</time></trkpt><trkpt lat="44.36817990430828" lon="11.575259467098935"><ele>97.66666666666666</ele><time>2026-03-22T15:47:39Z</time></trkpt><trkpt lat="44.36831676542359" lon="11.575362130900618"><ele>97.33333333333334</ele><time>2026-03-22T15:47:40Z</time></trkpt><trkpt lat="44.368452768719386" lon="11.575465403831794"><ele>97.0</ele><time>2026-03-22T15:47:41Z</time></trkpt><trkpt lat="44.36858509498413" lon="11.575572155260435"><ele>97.0</ele><time>2026-03-22T15:47:42Z</time></trkpt><trkpt lat="44.3687213711482" lon="11.575677579982882"><ele>97.0</ele><time>2026-03-22T15:47:43Z</time></trkpt><trkpt lat="44.368860884021124" lon="11.575781985754451"><ele>97.0</ele><time>2026-03-22T15:47:44Z</time></trkpt><trkpt lat="44.3689997727364" lon="11.575884701877365"><ele>95.75</ele><time>2026-03-22T15:47:45Z</time></trkpt><trkpt lat="44.369131454916214" lon="11.575988755808742"><ele>94.5</ele><time>2026-03-22T15:47:46Z</time></trkpt><trkpt lat="44.36925160961933" lon="11.576090363222717"><ele>93.25</ele><time>2026-03-22T15:47:47Z</time></trkpt><trkpt lat="44.36936926771257" lon="11.57618591238813"><ele>92.0</ele><time>2026-03-22T15:47:48Z</time></trkpt><trkpt lat="44.36948032954497" lon="11.576274186937216"><ele>92.0</ele><time>2026-03-22T15:47:49Z</time></trkpt><trkpt lat="44.369591836288656" lon="11.576353292840476"><ele>92.0</ele><time>2026-03-22T15:47:50Z</time></trkpt><trkpt lat="44.3697098805111" lon="11.57641747565895"><ele>92.0</ele><time>2026-03-22T15:47:51Z</time></trkpt><trkpt lat="44.369843258298786" lon="11.576450991459794"><ele>92.0</ele><time>2026-03-22T15:47:52Z</time></trkpt><trkpt lat="44.36998550440371" lon="11.576457387016452"><ele>93.33333333333334</ele><time>2026-03-22T15:47:53Z</time></trkpt><trkpt lat="44.370133668615146" lon="11.576440212942167"><ele>94.66666666666667</ele><time>2026-03-22T15:47:54Z</time></trkpt><trkpt lat="44.37028314615199" lon="11.576414211698948"><ele>96.0</ele><time>2026-03-22T15:47:55Z</time></trkpt><trkpt lat="44.37043495256053" lon="11.576405303430903"><ele>96.66666666666666</ele><time>2026-03-22T15:47:56Z</time></trkpt><trkpt lat="44.37058522942662" lon="11.57642591106086"><ele>97.33333333333333</ele><time>2026-03-22T15:47:57Z</time></trkpt><trkpt lat="44.37073978991756" lon="11.576451184858605"><ele>98.0</ele><time>2026-03-22T15:47:58Z</time></trkpt><trkpt lat="44.37089733188099" lon="11.576472419339899"><ele>98.0</ele><time>2026-03-22T15:47:59Z</time></trkpt><trkpt lat="44.371057471030745" lon="11.576499764775184"><ele>98.0</ele><time>2026-03-22T15:48:00Z</time></trkpt><trkpt lat="44.37120240296272" lon="11.576526059551734"><ele>98.0</ele><time>2026-03-22T15:48:01Z</time></trkpt><trkpt lat="44.37133731863429" lon="11.576558044122244"><ele>98.0</ele><time>2026-03-22T15:48:02Z</time></trkpt><trkpt lat="44.37147058569918" lon="11.576590540530326"><ele>97.75</ele><time>2026-03-22T15:48:03Z</time></trkpt><trkpt lat="44.37160798921969" lon="11.576621699208003"><ele>97.5</ele><time>2026-03-22T15:48:04Z</time></trkpt><trkpt lat="44.371755068932785" lon="11.576653042136492"><ele>97.25</ele><time>2026-03-22T15:48:05Z</time></trkpt><trkpt lat="44.371905659414395" lon="11.57668326833821"><ele>97.0</ele><time>2026-03-22T15:48:06Z</time></trkpt><trkpt lat="44.37206273773323" lon="11.576708459232725"><ele>97.0</ele><time>2026-03-22T15:48:07Z</time></trkpt><trkpt lat="44.37221134145281" lon="11.576735358588307"><ele>97.0</ele><time>2026-03-22T15:48:08Z</time></trkpt><trkpt lat="44.372349610614926" lon="11.576758777734703"><ele>97.0</ele><time>2026-03-22T15:48:09Z</time></trkpt><trkpt lat="44.372489553202804" lon="11.576769497968339"><ele>97.0</ele><time>2026-03-22T15:48:10Z</time></trkpt><trkpt lat="44.3726349817803" lon="11.576780174556262"><ele>97.0</ele><time>2026-03-22T15:48:11Z</time></trkpt><trkpt lat="44.37278545483691" lon="11.576817611191517"><ele>97.0</ele><time>2026-03-22T15:48:12Z</time></trkpt><trkpt lat="44.37293727080095" lon="11.576878380025866"><ele>97.0</ele><time>2026-03-22T15:48:13Z</time></trkpt><trkpt lat="44.37309009667139" lon="11.576971965361176"><ele>95.33333333333334</ele><time>2026-03-22T15:48:14Z</time></trkpt><trkpt lat="44.37324342297101" lon="11.577077953516218"><ele>93.66666666666667</ele><time>2026-03-22T15:48:15Z</time></trkpt><trkpt lat="44.373392097867544" lon="11.577173444744549"><ele>92.0</ele><time>2026-03-22T15:48:16Z</time></trkpt><trkpt lat="44.37355129360584" lon="11.577271652626012"><ele>92.0</ele><time>2026-03-22T15:48:17Z</time></trkpt><trkpt lat="44.37371700965314" lon="11.5773670207773"><ele>92.0</ele><time>2026-03-22T15:48:18Z</time></trkpt><trkpt lat="44.37388409884155" lon="11.57746168136702"><ele>92.0</ele><time>2026-03-22T15:48:19Z</time></trkpt><trkpt lat="44.374054683857544" lon="11.577554471517217"><ele>93.33333333333334</ele><time>2026-03-22T15:48:20Z</time></trkpt><trkpt lat="44.37421056931419" lon="11.577638737691974"><ele>94.66666666666667</ele><time>2026-03-22T15:48:21Z</time></trkpt><trkpt lat="44.37436468836776" lon="11.57772559943303"><ele>96.0</ele><time>2026-03-22T15:48:22Z</time></trkpt><trkpt lat="44.37451214025988" lon="11.577807205941047"><ele>96.0</ele><time>2026-03-22T15:48:23Z</time></trkpt><trkpt lat="44.37466673815274" lon="11.577891831185639"><ele>96.0</ele><time>2026-03-22T15:48:24Z</time></trkpt><trkpt lat="44.374822273921126" lon="11.577984374426899"><ele>96.0</ele><time>2026-03-22T15:48:25Z</time></trkpt><trkpt lat="44.374969137468796" lon="11.578069659320901"><ele>96.0</ele><time>2026-03-22T15:48:26Z</time></trkpt><trkpt lat="44.375120440685656" lon="11.578151725970752"><ele>96.0</ele><time>2026-03-22T15:48:27Z</time></trkpt><trkpt lat="44.37527384865408" lon="11.578236423951243"><ele>96.0</ele><time>2026-03-22T15:48:28Z</time></trkpt><trkpt lat="44.375430877479324" lon="11.578324992216633"><ele>95.66666666666667</ele><time>2026-03-22T15:48:29Z</time></trkpt><trkpt lat="44.37559331190953" lon="11.578408459004097"><ele>95.33333333333334</ele><time>2026-03-22T15:48:30Z</time></trkpt><trkpt lat="44.37576051639554" lon="11.578480751118427"><ele>95.0</ele><time>2026-03-22T15:48:31Z</time></trkpt><trkpt lat="44.375934872637856" lon="11.578540660455964"><ele>95.0</ele><time>2026-03-22T15:48:32Z</time></trkpt><trkpt lat="44.37610819221047" lon="11.578597121697022"><ele>95.0</ele><time>2026-03-22T15:48:33Z</time></trkpt><trkpt lat="44.3762799328856" lon="11.578650697838915"><ele>95.0</ele><time>2026-03-22T15:48:34Z</time></trkpt><trkpt lat="44.37645766063933" lon="11.57871069585647"><ele>93.33333333333334</ele><time>2026-03-22T15:48:35Z</time></trkpt><trkpt lat="44.37664142118088" lon="11.578769748893297"><ele>91.66666666666667</ele><time>2026-03-22T15:48:36Z</time></trkpt><trkpt lat="44.376826281446355" lon="11.578827303491094"><ele>90.0</ele><time>2026-03-22T15:48:37Z</time></trkpt><trkpt lat="44.37701751964163" lon="11.578888510896387"><ele>89.66666666666667</ele><time>2026-03-22T15:48:38Z</time></trkpt><trkpt lat="44.37722988219462" lon="11.578961896917106"><ele>89.33333333333334</ele><time>2026-03-22T15:48:39Z</time></trkpt><trkpt lat="44.37745384974469" lon="11.579035260455194"><ele>89.0</ele><time>2026-03-22T15:48:40Z</time></trkpt><trkpt lat="44.3776505282925" lon="11.579097237055281"><ele>89.0</ele><time>2026-03-22T15:48:41Z</time></trkpt><trkpt lat="44.3778293189979" lon="11.579156127700728"><ele>89.0</ele><time>2026-03-22T15:48:42Z</time></trkpt><trkpt lat="44.37799801079114" lon="11.57921328115585"><ele>89.0</ele><time>2026-03-22T15:48:43Z</time></trkpt><trkpt lat="44.378157649599885" lon="11.579263534642108"><ele>89.0</ele><time>2026-03-22T15:48:44Z</time></trkpt><trkpt lat="44.37831485184497" lon="11.579309190935575"><ele>89.0</ele><time>2026-03-22T15:48:45Z</time></trkpt><trkpt lat="44.37847350354128" lon="11.579360016596295"><ele>89.0</ele><time>2026-03-22T15:48:46Z</time></trkpt><trkpt lat="44.378638099319616" lon="11.579419071039194"><ele>89.0</ele><time>2026-03-22T15:48:47Z</time></trkpt><trkpt lat="44.378804634078286" lon="11.579488657008234"><ele>89.0</ele><time>2026-03-22T15:48:48Z</time></trkpt><trkpt lat="44.37897580898078" lon="11.57957002975166"><ele>89.0</ele><time>2026-03-22T15:48:49Z</time></trkpt><trkpt lat="44.379148417951335" lon="11.579634709801908"><ele>88.66666666666667</ele><time>2026-03-22T15:48:50Z</time></trkpt><trkpt lat="44.37932107689828" lon="11.579689029708764"><ele>88.33333333333333</ele><time>2026-03-22T15:48:51Z</time></trkpt><trkpt lat="44.37950014144849" lon="11.579746361255555"><ele>88.0</ele><time>2026-03-22T15:48:52Z</time></trkpt><trkpt lat="44.3796769964598" lon="11.57980408557122"><ele>87.66666666666666</ele><time>2026-03-22T15:48:53Z</time></trkpt><trkpt lat="44.379849205188606" lon="11.579858618485614"><ele>87.33333333333333</ele><time>2026-03-22T15:48:54Z</time></trkpt><trkpt lat="44.38002402826156" lon="11.57991046009804"><ele>87.0</ele><time>2026-03-22T15:48:55Z</time></trkpt><trkpt lat="44.38019777302538" lon="11.579958689143837"><ele>87.0</ele><time>2026-03-22T15:48:56Z</time></trkpt><trkpt lat="44.380377166415016" lon="11.580012068318085"><ele>87.0</ele><time>2026-03-22T15:48:57Z</time></trkpt><trkpt lat="44.38056123712544" lon="11.580071945317993"><ele>87.0</ele><time>2026-03-22T15:48:58Z</time></trkpt><trkpt lat="44.38073899826981" lon="11.580135407256343"><ele>87.0</ele><time>2026-03-22T15:48:59Z</time></trkpt><trkpt lat="44.38091805046362" lon="11.580192673996049"><ele>87.0</ele><time>2026-03-22T15:49:00Z</time></trkpt><trkpt lat="44.38109634766404" lon="11.58024818722564"><ele>87.0</ele><time>2026-03-22T15:49:01Z</time></trkpt><trkpt lat="44.38127151159653" lon="11.58030618699188"><ele>86.66666666666667</ele><time>2026-03-22T15:49:02Z</time></trkpt><trkpt lat="44.38144389817123" lon="11.580369591255932"><ele>86.33333333333334</ele><time>2026-03-22T15:49:03Z</time></trkpt><trkpt lat="44.38161271420284" lon="11.580434640454664"><ele>86.0</ele><time>2026-03-22T15:49:04Z</time></trkpt><trkpt lat="44.38178298264165" lon="11.580492918682456"><ele>86.0</ele><time>2026-03-22T15:49:05Z</time></trkpt><trkpt lat="44.38195382597816" lon="11.580555274762416"><ele>86.0</ele><time>2026-03-22T15:49:06Z</time></trkpt><trkpt lat="44.38212374502555" lon="11.580616426812101"><ele>86.0</ele><time>2026-03-22T15:49:07Z</time></trkpt><trkpt lat="44.38228306228204" lon="11.5806797694823"><ele>85.66666666666667</ele><time>2026-03-22T15:49:08Z</time></trkpt><trkpt lat="44.38244302574322" lon="11.580734511869807"><ele>85.33333333333333</ele><time>2026-03-22T15:49:09Z</time></trkpt><trkpt lat="44.38261113649859" lon="11.58078542295318"><ele>85.0</ele><time>2026-03-22T15:49:10Z</time></trkpt><trkpt lat="44.382783678235654" lon="11.58083860079638"><ele>85.0</ele><time>2026-03-22T15:49:11Z</time></trkpt><trkpt lat="44.38297231892549" lon="11.58086340017748"><ele>85.0</ele><time>2026-03-22T15:49:12Z</time></trkpt><trkpt lat="44.38315463279333" lon="11.580852910858312"><ele>85.0</ele><time>2026-03-22T15:49:13Z</time></trkpt><trkpt lat="44.38333343697168" lon="11.580838440925302"><ele>84.66666666666666</ele><time>2026-03-22T15:49:14Z</time></trkpt><trkpt lat="44.38352142960042" lon="11.580821284862559"><ele>84.33333333333333</ele><time>2026-03-22T15:49:15Z</time></trkpt><trkpt lat="44.38370286669546" lon="11.58081484556628"><ele>84.0</ele><time>2026-03-22T15:49:16Z</time></trkpt><trkpt lat="44.38388119820757" lon="11.580802834646455"><ele>85.66666666666667</ele><time>2026-03-22T15:49:17Z</time></trkpt><trkpt lat="44.38406622678192" lon="11.58080049291606"><ele>87.33333333333334</ele><time>2026-03-22T15:49:18Z</time></trkpt><trkpt lat="44.38424085365" lon="11.58083913535761"><ele>89.0</ele><time>2026-03-22T15:49:19Z</time></trkpt><trkpt lat="44.38439857891084" lon="11.580900425801174"><ele>89.0</ele><time>2026-03-22T15:49:20Z</time></trkpt><trkpt lat="44.38453527718691" lon="11.580969369302721"><ele>89.0</ele><time>2026-03-22T15:49:21Z</time></trkpt><trkpt lat="44.384673291875465" lon="11.581036986370446"><ele>89.0</ele><time>2026-03-22T15:49:22Z</time></trkpt><trkpt lat="44.384810369460624" lon="11.581079380656432"><ele>89.0</ele><time>2026-03-22T15:49:23Z</time></trkpt><trkpt lat="44.3849622282522" lon="11.581082638720634"><ele>92.33333333333334</ele><time>2026-03-22T15:49:24Z</time></trkpt><trkpt lat="44.385120343350316" lon="11.581070439008336"><ele>95.66666666666667</ele><time>2026-03-22T15:49:25Z</time></trkpt><trkpt lat="44.38527929143725" lon="11.581050919736997"><ele>99.0</ele><time>2026-03-22T15:49:26Z</time></trkpt><trkpt lat="44.38543132751891" lon="11.58103431226307"><ele>100.0</ele><time>2026-03-22T15:49:27Z</time></trkpt><trkpt lat="44.38556678782362" lon="11.581024694845583"><ele>101.0</ele><time>2026-03-22T15:49:28Z</time></trkpt><trkpt lat="44.38568599154356" lon="11.581025584569536"><ele>102.0</ele><time>2026-03-22T15:49:29Z</time></trkpt><trkpt lat="44.38580421577255" lon="11.581026791282312"><ele>103.0</ele><time>2026-03-22T15:49:30Z</time></trkpt><trkpt lat="44.385929302470004" lon="11.581036882537866"><ele>103.0</ele><time>2026-03-22T15:49:31Z</time></trkpt><trkpt lat="44.38605617406328" lon="11.581075760522781"><ele>103.0</ele><time>2026-03-22T15:49:32Z</time></trkpt><trkpt lat="44.386190346354006" lon="11.581139174220988"><ele>103.0</ele><time>2026-03-22T15:49:33Z</time></trkpt><trkpt lat="44.38632382896033" lon="11.581223731299067"><ele>103.0</ele><time>2026-03-22T15:49:34Z</time></trkpt><trkpt lat="44.38645817960216" lon="11.581324773240823"><ele>103.0</ele><time>2026-03-22T15:49:35Z</time></trkpt><trkpt lat="44.386598499939154" lon="11.581438598913408"><ele>103.0</ele><time>2026-03-22T15:49:36Z</time></trkpt><trkpt lat="44.3867451880876" lon="11.58154885124569"><ele>103.0</ele><time>2026-03-22T15:49:37Z</time></trkpt><trkpt lat="44.38689152861231" lon="11.581647509727334"><ele>103.0</ele><time>2026-03-22T15:49:38Z</time></trkpt><trkpt lat="44.3870472462837" lon="11.581755829506193"><ele>103.0</ele><time>2026-03-22T15:49:39Z</time></trkpt><trkpt lat="44.38720762846529" lon="11.581868766336273"><ele>103.0</ele><time>2026-03-22T15:49:40Z</time></trkpt><trkpt lat="44.38736873703364" lon="11.581982927940262"><ele>101.66666666666667</ele><time>2026-03-22T15:49:41Z</time></trkpt><trkpt lat="44.38753004044146" lon="11.582108867036922"><ele>100.33333333333334</ele><time>2026-03-22T15:49:42Z</time></trkpt><trkpt lat="44.387700008443545" lon="11.582228075687796"><ele>99.0</ele><time>2026-03-22T15:49:43Z</time></trkpt><trkpt lat="44.38786385823777" lon="11.582349026369409"><ele>98.66666666666666</ele><time>2026-03-22T15:49:44Z</time></trkpt><trkpt lat="44.388025918777345" lon="11.582466377217727"><ele>98.33333333333333</ele><time>2026-03-22T15:49:45Z</time></trkpt><trkpt lat="44.388178430312706" lon="11.582578755997924"><ele>98.0</ele><time>2026-03-22T15:49:46Z</time></trkpt><trkpt lat="44.388322942809644" lon="11.582686449668348"><ele>98.0</ele><time>2026-03-22T15:49:47Z</time></trkpt><trkpt lat="44.388467825507306" lon="11.582792890175881"><ele>98.0</ele><time>2026-03-22T15:49:48Z</time></trkpt><trkpt lat="44.38861690591426" lon="11.582894051958831"><ele>98.0</ele><time>2026-03-22T15:49:49Z</time></trkpt><trkpt lat="44.388757779339485" lon="11.58299907282236"><ele>97.33333333333333</ele><time>2026-03-22T15:49:50Z</time></trkpt><trkpt lat="44.38889752225878" lon="11.583096033447937"><ele>96.66666666666666</ele><time>2026-03-22T15:49:51Z</time></trkpt><trkpt lat="44.38905123756221" lon="11.583195198491978"><ele>96.0</ele><time>2026-03-22T15:49:52Z</time></trkpt><trkpt lat="44.38919354051754" lon="11.583293366475756"><ele>96.0</ele><time>2026-03-22T15:49:53Z</time></trkpt><trkpt lat="44.38932400205175" lon="11.583383988131281"><ele>96.0</ele><time>2026-03-22T15:49:54Z</time></trkpt><trkpt lat="44.38944446761447" lon="11.583469209503148"><ele>96.0</ele><time>2026-03-22T15:49:55Z</time></trkpt><trkpt lat="44.38956240720361" lon="11.583558805799228"><ele>96.0</ele><time>2026-03-22T15:49:56Z</time></trkpt><trkpt lat="44.38966977468243" lon="11.583650774258235"><ele>95.8</ele><time>2026-03-22T15:49:57Z</time></trkpt><trkpt lat="44.38976306138518" lon="11.583743839601055"><ele>95.6</ele><time>2026-03-22T15:49:58Z</time></trkpt><trkpt lat="44.38984750187154" lon="11.583839752614427"><ele>95.4</ele><time>2026-03-22T15:49:59Z</time></trkpt><trkpt lat="44.38993064212133" lon="11.583939991298761"><ele>95.2</ele><time>2026-03-22T15:50:00Z</time></trkpt><trkpt lat="44.390018223724425" lon="11.584036891070568"><ele>95.0</ele><time>2026-03-22T15:50:01Z</time></trkpt><trkpt lat="44.39010082486362" lon="11.584125281058057"><ele>95.0</ele><time>2026-03-22T15:50:02Z</time></trkpt><trkpt lat="44.39018235080832" lon="11.584212373477127"><ele>95.0</ele><time>2026-03-22T15:50:03Z</time></trkpt><trkpt lat="44.390275778220335" lon="11.58430313463291"><ele>95.0</ele><time>2026-03-22T15:50:04Z</time></trkpt><trkpt lat="44.39037244571794" lon="11.584395101294916"><ele>95.0</ele><time>2026-03-22T15:50:05Z</time></trkpt><trkpt lat="44.39046889849154" lon="11.584481146819591"><ele>95.0</ele><time>2026-03-22T15:50:06Z</time></trkpt><trkpt lat="44.390569138974406" lon="11.584570192209435"><ele>94.6</ele><time>2026-03-22T15:50:07Z</time></trkpt><trkpt lat="44.390667558925195" lon="11.584657512514363"><ele>94.2</ele><time>2026-03-22T15:50:08Z</time></trkpt><trkpt lat="44.390766544031536" lon="11.584739772743346"><ele>93.80000000000001</ele><time>2026-03-22T15:50:09Z</time></trkpt><trkpt lat="44.39086260004323" lon="11.584807820226843"><ele>93.4</ele><time>2026-03-22T15:50:10Z</time></trkpt><trkpt lat="44.390957989782514" lon="11.584864114801837"><ele>93.0</ele><time>2026-03-22T15:50:11Z</time></trkpt><trkpt lat="44.39105179958829" lon="11.58490963468407"><ele>93.0</ele><time>2026-03-22T15:50:12Z</time></trkpt><trkpt lat="44.39114294805922" lon="11.584948073578847"><ele>93.0</ele><time>2026-03-22T15:50:13Z</time></trkpt><trkpt lat="44.391225998695965" lon="11.584963482314203"><ele>93.0</ele><time>2026-03-22T15:50:14Z</time></trkpt><trkpt lat="44.391307933727525" lon="11.584972583200198"><ele>93.0</ele><time>2026-03-22T15:50:15Z</time></trkpt><trkpt lat="44.39137834368812" lon="11.584994316773427"><ele>93.0</ele><time>2026-03-22T15:50:16Z</time></trkpt><trkpt lat="44.39143796676975" lon="11.585042353456403"><ele>93.0</ele><time>2026-03-22T15:50:17Z</time></trkpt><trkpt lat="44.39149066517703" lon="11.58510519365231"><ele>92.66666666666667</ele><time>2026-03-22T15:50:18Z</time></trkpt><trkpt lat="44.39154364191503" lon="11.585182286605203"><ele>92.33333333333333</ele><time>2026-03-22T15:50:19Z</time></trkpt><trkpt lat="44.391612351728426" lon="11.585238489372161"><ele>92.0</ele><time>2026-03-22T15:50:20Z</time></trkpt><trkpt lat="44.39167980349994" lon="11.585245772430167"><ele>91.66666666666666</ele><time>2026-03-22T15:50:21Z</time></trkpt><trkpt lat="44.391744212809144" lon="11.585217362307539"><ele>91.33333333333333</ele><time>2026-03-22T15:50:22Z</time></trkpt><trkpt lat="44.39181812420118" lon="11.585212444600495"><ele>91.0</ele><time>2026-03-22T15:50:23Z</time></trkpt><trkpt lat="44.39189880277703" lon="11.58497761783023"><ele>91.0</ele><time>2026-03-22T15:50:25Z</time></trkpt><trkpt lat="44.39189941632652" lon="11.584852246950566"><ele>91.0</ele><time>2026-03-22T15:50:26Z</time></trkpt><trkpt lat="44.39187414765668" lon="11.584731537525583"><ele>91.0</ele><time>2026-03-22T15:50:27Z</time></trkpt><trkpt lat="44.39186883683267" lon="11.584607493739405"><ele>91.0</ele><time>2026-03-22T15:50:28Z</time></trkpt><trkpt lat="44.39187171381411" lon="11.584468772747949"><ele>91.0</ele><time>2026-03-22T15:50:29Z</time></trkpt><trkpt lat="44.39194570832937" lon="11.58431770478844"><ele>91.25</ele><time>2026-03-22T15:50:30Z</time></trkpt><trkpt lat="44.39201458561623" lon="11.584188359984859"><ele>91.5</ele><time>2026-03-22T15:50:31Z</time></trkpt><trkpt lat="44.3920840961293" lon="11.584057859495456"><ele>91.75</ele><time>2026-03-22T15:50:32Z</time></trkpt><trkpt lat="44.3921555294408" lon="11.5839135261227"><ele>92.0</ele><time>2026-03-22T15:50:33Z</time></trkpt><trkpt lat="44.39224885047442" lon="11.583769313189734"><ele>91.25</ele><time>2026-03-22T15:50:34Z</time></trkpt><trkpt lat="44.392357104763434" lon="11.583643592972793"><ele>90.5</ele><time>2026-03-22T15:50:35Z</time></trkpt><trkpt lat="44.392461224422526" lon="11.583531132234855"><ele>89.75</ele><time>2026-03-22T15:50:36Z</time></trkpt><trkpt lat="44.392556155822234" lon="11.583418710634504"><ele>89.0</ele><time>2026-03-22T15:50:37Z</time></trkpt><trkpt lat="44.392650245049644" lon="11.583300348650505"><ele>89.0</ele><time>2026-03-22T15:50:38Z</time></trkpt><trkpt lat="44.392748675857376" lon="11.583179814932985"><ele>89.0</ele><time>2026-03-22T15:50:39Z</time></trkpt><trkpt lat="44.392850424626786" lon="11.583059202626396"><ele>89.0</ele><time>2026-03-22T15:50:40Z</time></trkpt><trkpt lat="44.39295221709084" lon="11.582938345525799"><ele>89.0</ele><time>2026-03-22T15:50:41Z</time></trkpt><trkpt lat="44.39305533270574" lon="11.582817450600345"><ele>88.5</ele><time>2026-03-22T15:50:42Z</time></trkpt><trkpt lat="44.393157298583695" lon="11.582696993174524"><ele>88.0</ele><time>2026-03-22T15:50:43Z</time></trkpt><trkpt lat="44.39325482107223" lon="11.58257662131098"><ele>87.5</ele><time>2026-03-22T15:50:44Z</time></trkpt><trkpt lat="44.39335272855659" lon="11.58245573347473"><ele>87.0</ele><time>2026-03-22T15:50:45Z</time></trkpt><trkpt lat="44.39344665850064" lon="11.582342023742799"><ele>87.0</ele><time>2026-03-22T15:50:46Z</time></trkpt><trkpt lat="44.39353948813861" lon="11.582232367620191"><ele>87.0</ele><time>2026-03-22T15:50:47Z</time></trkpt><trkpt lat="44.39363197512684" lon="11.582122070518597"><ele>87.0</ele><time>2026-03-22T15:50:48Z</time></trkpt><trkpt lat="44.393719629205" lon="11.582010914691981"><ele>87.0</ele><time>2026-03-22T15:50:49Z</time></trkpt><trkpt lat="44.39381212234293" lon="11.581907739620723"><ele>87.0</ele><time>2026-03-22T15:50:50Z</time></trkpt><trkpt lat="44.39390192320604" lon="11.58179923909033"><ele>87.0</ele><time>2026-03-22T15:50:51Z</time></trkpt><trkpt lat="44.39398856286205" lon="11.581689009798254"><ele>87.0</ele><time>2026-03-22T15:50:52Z</time></trkpt><trkpt lat="44.394078950168755" lon="11.581576772529797"><ele>87.0</ele><time>2026-03-22T15:50:53Z</time></trkpt><trkpt lat="44.3941677630042" lon="11.581464330305097"><ele>87.0</ele><time>2026-03-22T15:50:54Z</time></trkpt><trkpt lat="44.39426195627692" lon="11.581355209388953"><ele>87.0</ele><time>2026-03-22T15:50:55Z</time></trkpt><trkpt lat="44.39435627565038" lon="11.58124899986704"><ele>87.0</ele><time>2026-03-22T15:50:56Z</time></trkpt><trkpt lat="44.39444934766538" lon="11.58113966644411"><ele>87.0</ele><time>2026-03-22T15:50:57Z</time></trkpt><trkpt lat="44.39453975995466" lon="11.581030026984228"><ele>87.25</ele><time>2026-03-22T15:50:58Z</time></trkpt><trkpt lat="44.394630154303584" lon="11.580916036175342"><ele>87.5</ele><time>2026-03-22T15:50:59Z</time></trkpt><trkpt lat="44.39472168529689" lon="11.580805569802326"><ele>87.75</ele><time>2026-03-22T15:51:00Z</time></trkpt><trkpt lat="44.394815571966575" lon="11.580695514137393"><ele>88.0</ele><time>2026-03-22T15:51:01Z</time></trkpt><trkpt lat="44.39491071021638" lon="11.580585332183325"><ele>88.0</ele><time>2026-03-22T15:51:02Z</time></trkpt><trkpt lat="44.395004432205354" lon="11.580476553667161"><ele>88.0</ele><time>2026-03-22T15:51:03Z</time></trkpt><trkpt lat="44.39509811181285" lon="11.58036468924314"><ele>88.0</ele><time>2026-03-22T15:51:04Z</time></trkpt><trkpt lat="44.39518975686226" lon="11.580250552147705"><ele>88.0</ele><time>2026-03-22T15:51:05Z</time></trkpt><trkpt lat="44.39528221015183" lon="11.580138807240214"><ele>87.75</ele><time>2026-03-22T15:51:06Z</time></trkpt><trkpt lat="44.39537388204496" lon="11.580020883797042"><ele>87.5</ele><time>2026-03-22T15:51:07Z</time></trkpt><trkpt lat="44.39546437622315" lon="11.579907434762172"><ele>87.25</ele><time>2026-03-22T15:51:08Z</time></trkpt><trkpt lat="44.39554829372006" lon="11.579804050325007"><ele>87.0</ele><time>2026-03-22T15:51:09Z</time></trkpt><trkpt lat="44.39562522957964" lon="11.579713544993876"><ele>87.0</ele><time>2026-03-22T15:51:10Z</time></trkpt><trkpt lat="44.395700859881536" lon="11.579630241083976"><ele>87.0</ele><time>2026-03-22T15:51:11Z</time></trkpt><trkpt lat="44.39577898158047" lon="11.57954207961996"><ele>87.0</ele><time>2026-03-22T15:51:12Z</time></trkpt><trkpt lat="44.39585324093917" lon="11.579459927295554"><ele>87.0</ele><time>2026-03-22T15:51:13Z</time></trkpt><trkpt lat="44.395917360219734" lon="11.57939258406003"><ele>87.0</ele><time>2026-03-22T15:51:14Z</time></trkpt><trkpt lat="44.39598468318199" lon="11.57929163524843"><ele>87.0</ele><time>2026-03-22T15:51:16Z</time></trkpt><trkpt lat="44.39605269751632" lon="11.579238547928574"><ele>87.0</ele><time>2026-03-22T15:51:18Z</time></trkpt><trkpt lat="44.39611293779727" lon="11.579197964226308"><ele>87.0</ele><time>2026-03-22T15:51:20Z</time></trkpt><trkpt lat="44.39627006749961" lon="11.579212867855535"><ele>87.0</ele><time>2026-03-22T15:51:22Z</time></trkpt><trkpt lat="44.39634585820544" lon="11.579238124326961"><ele>87.0</ele><time>2026-03-22T15:51:23Z</time></trkpt><trkpt lat="44.39642537271743" lon="11.57921154287014"><ele>87.0</ele><time>2026-03-22T15:51:24Z</time></trkpt><trkpt lat="44.39649971832149" lon="11.579160864730097"><ele>87.0</ele><time>2026-03-22T15:51:25Z</time></trkpt><trkpt lat="44.39654293788235" lon="11.579058769136372"><ele>87.0</ele><time>2026-03-22T15:51:26Z</time></trkpt><trkpt lat="44.3965793473105" lon="11.578969127987586"><ele>87.0</ele><time>2026-03-22T15:51:27Z</time></trkpt><trkpt lat="44.396599894143456" lon="11.578805245530841"><ele>87.0</ele><time>2026-03-22T15:51:29Z</time></trkpt><trkpt lat="44.396759766166774" lon="11.57879199782972"><ele>87.0</ele><time>2026-03-22T15:51:30Z</time></trkpt><trkpt lat="44.396835801382494" lon="11.57873971242728"><ele>87.0</ele><time>2026-03-22T15:51:31Z</time></trkpt><trkpt lat="44.396931366220194" lon="11.578704196396982"><ele>87.0</ele><time>2026-03-22T15:51:32Z</time></trkpt><trkpt lat="44.39704040333346" lon="11.578687073536914"><ele>87.0</ele><time>2026-03-22T15:51:33Z</time></trkpt><trkpt lat="44.39715035035032" lon="11.578675822304595"><ele>87.0</ele><time>2026-03-22T15:51:34Z</time></trkpt><trkpt lat="44.39725987600101" lon="11.57866233364437"><ele>87.0</ele><time>2026-03-22T15:51:35Z</time></trkpt><trkpt lat="44.397384155284556" lon="11.578647639468647"><ele>87.0</ele><time>2026-03-22T15:51:36Z</time></trkpt><trkpt lat="44.39751357137761" lon="11.578633438752012"><ele>87.0</ele><time>2026-03-22T15:51:37Z</time></trkpt><trkpt lat="44.39764054308856" lon="11.578619060403412"><ele>87.0</ele><time>2026-03-22T15:51:38Z</time></trkpt><trkpt lat="44.39775959068707" lon="11.578605783425756"><ele>87.0</ele><time>2026-03-22T15:51:39Z</time></trkpt><trkpt lat="44.39787952930017" lon="11.578592416227012"><ele>87.0</ele><time>2026-03-22T15:51:40Z</time></trkpt><trkpt lat="44.398006178525655" lon="11.578576350142306"><ele>87.0</ele><time>2026-03-22T15:51:41Z</time></trkpt><trkpt lat="44.398138032122425" lon="11.578565926273324"><ele>87.0</ele><time>2026-03-22T15:51:42Z</time></trkpt><trkpt lat="44.39827457570478" lon="11.578547359235866"><ele>87.0</ele><time>2026-03-22T15:51:43Z</time></trkpt><trkpt lat="44.39841473700163" lon="11.578527026214354"><ele>87.0</ele><time>2026-03-22T15:51:44Z</time></trkpt><trkpt lat="44.398558871805825" lon="11.57850647084261"><ele>87.0</ele><time>2026-03-22T15:51:45Z</time></trkpt><trkpt lat="44.398703927342986" lon="11.578488780917677"><ele>87.0</ele><time>2026-03-22T15:51:46Z</time></trkpt><trkpt lat="44.39884960312582" lon="11.578471399270834"><ele>85.5</ele><time>2026-03-22T15:51:47Z</time></trkpt><trkpt lat="44.398995125226826" lon="11.578456574377569"><ele>84.0</ele><time>2026-03-22T15:51:48Z</time></trkpt><trkpt lat="44.399141100309265" lon="11.578443427779733"><ele>82.5</ele><time>2026-03-22T15:51:49Z</time></trkpt><trkpt lat="44.39928679417517" lon="11.578426726952424"><ele>81.0</ele><time>2026-03-22T15:51:50Z</time></trkpt><trkpt lat="44.39943196222906" lon="11.57841164023529"><ele>81.0</ele><time>2026-03-22T15:51:51Z</time></trkpt><trkpt lat="44.399576120537866" lon="11.57839736065374"><ele>81.0</ele><time>2026-03-22T15:51:52Z</time></trkpt><trkpt lat="44.39971850816838" lon="11.578377773606915"><ele>81.0</ele><time>2026-03-22T15:51:53Z</time></trkpt><trkpt lat="44.399851339692994" lon="11.57836254130705"><ele>81.0</ele><time>2026-03-22T15:51:54Z</time></trkpt><trkpt lat="44.399978654001295" lon="11.578353834693184"><ele>80.25</ele><time>2026-03-22T15:51:55Z</time></trkpt><trkpt lat="44.4001056071992" lon="11.578346287980175"><ele>79.5</ele><time>2026-03-22T15:51:56Z</time></trkpt><trkpt lat="44.40023458554476" lon="11.578329086397867"><ele>78.75</ele><time>2026-03-22T15:51:57Z</time></trkpt><trkpt lat="44.40036091455493" lon="11.578307857425317"><ele>78.0</ele><time>2026-03-22T15:51:58Z</time></trkpt><trkpt lat="44.4004851370531" lon="11.578281479299646"><ele>77.5</ele><time>2026-03-22T15:51:59Z</time></trkpt><trkpt lat="44.40060806853914" lon="11.578266675844398"><ele>77.0</ele><time>2026-03-22T15:52:00Z</time></trkpt><trkpt lat="44.40072815356768" lon="11.578257597393618"><ele>76.5</ele><time>2026-03-22T15:52:01Z</time></trkpt><trkpt lat="44.40084163660145" lon="11.578248986893893"><ele>76.0</ele><time>2026-03-22T15:52:02Z</time></trkpt><trkpt lat="44.400944242256486" lon="11.578244753141098"><ele>76.0</ele><time>2026-03-22T15:52:03Z</time></trkpt><trkpt lat="44.401039225303016" lon="11.578250522141216"><ele>76.0</ele><time>2026-03-22T15:52:04Z</time></trkpt><trkpt lat="44.401107046176065" lon="11.578268305328413"><ele>76.0</ele><time>2026-03-22T15:52:05Z</time></trkpt><trkpt lat="44.401213034055324" lon="11.578367160075143"><ele>76.0</ele><time>2026-03-22T15:52:07Z</time></trkpt><trkpt lat="44.40128848952142" lon="11.578500069560421"><ele>76.0</ele><time>2026-03-22T15:52:09Z</time></trkpt><trkpt lat="44.40135421469409" lon="11.578528108459517"><ele>76.83333333333333</ele><time>2026-03-22T15:52:10Z</time></trkpt><trkpt lat="44.4014216875943" lon="11.578506400295872"><ele>77.66666666666666</ele><time>2026-03-22T15:52:11Z</time></trkpt><trkpt lat="44.401473187294144" lon="11.578434954541724"><ele>78.5</ele><time>2026-03-22T15:52:12Z</time></trkpt><trkpt lat="44.40150122289571" lon="11.578336819475487"><ele>79.33333333333333</ele><time>2026-03-22T15:52:13Z</time></trkpt><trkpt lat="44.401516059586136" lon="11.578232331331957"><ele>80.16666666666667</ele><time>2026-03-22T15:52:14Z</time></trkpt><trkpt lat="44.40154522057669" lon="11.578127358104103"><ele>81.0</ele><time>2026-03-22T15:52:15Z</time></trkpt><trkpt lat="44.401586991002496" lon="11.578027795766927"><ele>81.0</ele><time>2026-03-22T15:52:16Z</time></trkpt><trkpt lat="44.40163055420549" lon="11.577926831776534"><ele>81.0</ele><time>2026-03-22T15:52:17Z</time></trkpt><trkpt lat="44.40166456468362" lon="11.577807612494952"><ele>81.0</ele><time>2026-03-22T15:52:18Z</time></trkpt><trkpt lat="44.40169444843643" lon="11.577675366583536"><ele>81.0</ele><time>2026-03-22T15:52:19Z</time></trkpt><trkpt lat="44.40172053854692" lon="11.577543978549402"><ele>81.0</ele><time>2026-03-22T15:52:20Z</time></trkpt><trkpt lat="44.4017457196213" lon="11.577414727553142"><ele>80.0</ele><time>2026-03-22T15:52:21Z</time></trkpt><trkpt lat="44.40177533962089" lon="11.57729038766806"><ele>79.0</ele><time>2026-03-22T15:52:22Z</time></trkpt><trkpt lat="44.401797807699644" lon="11.577151793094728"><ele>78.0</ele><time>2026-03-22T15:52:23Z</time></trkpt><trkpt lat="44.4018200561909" lon="11.577017829872792"><ele>77.0</ele><time>2026-03-22T15:52:24Z</time></trkpt><trkpt lat="44.40184193562181" lon="11.576902799560424"><ele>76.0</ele><time>2026-03-22T15:52:25Z</time></trkpt><trkpt lat="44.40186393091416" lon="11.576801986637765"><ele>75.66666666666666</ele><time>2026-03-22T15:52:26Z</time></trkpt><trkpt lat="44.40188274483992" lon="11.576695853010156"><ele>75.33333333333333</ele><time>2026-03-22T15:52:27Z</time></trkpt><trkpt lat="44.401908110691835" lon="11.57658446352776"><ele>75.0</ele><time>2026-03-22T15:52:28Z</time></trkpt><trkpt lat="44.401926299746854" lon="11.57649406097872"><ele>74.66666666666667</ele><time>2026-03-22T15:52:29Z</time></trkpt><trkpt lat="44.40195522767121" lon="11.576350702831801"><ele>74.33333333333334</ele><time>2026-03-22T15:52:31Z</time></trkpt><trkpt lat="44.40198423431627" lon="11.576237080192476"><ele>74.0</ele><time>2026-03-22T15:52:33Z</time></trkpt><trkpt lat="44.40210722263333" lon="11.576246624660468"><ele>74.0</ele><time>2026-03-22T15:52:36Z</time></trkpt><trkpt lat="44.402142895583246" lon="11.576146008233772"><ele>74.0</ele><time>2026-03-22T15:52:38Z</time></trkpt><trkpt lat="44.402162710980804" lon="11.576052795190684"><ele>74.0</ele><time>2026-03-22T15:52:40Z</time></trkpt><trkpt lat="44.40218101222519" lon="11.575965678544408"><ele>73.0</ele><time>2026-03-22T15:52:43Z</time></trkpt><trkpt lat="44.40218101222519" lon="11.575965678544408"><ele>73.0</ele><time>2026-03-22T15:52:43Z</time></trkpt></trkseg></trk></gpx>